PWSweather.com
Personal Weather Stations
Station Observations
KMILAPEE3
Lapeer Michigan, Lapeer, MI 48446

Lapeer MichiganLapeer, MI 48446

Lat: 43.057, Lon: -83.362

Elevation: 897

Station Type: Oregon Scientific WMR-968

Latest ConditionsUpdated 7:07:45 AM EDT Monday, Apr 24, 2017
Currently Today's Max Today's Min Today's Average
Temperature 34.7°F1.5°C 42.4°F5.8°C 34.2°F1.2°C 38.0°F3.3°C
Dew Point 22.8°F-5.1°C 27.6°F-2.4°C 21.8°F-5.7°C 24.9°F-3.9°C
Winds Calm Calm 6.7 mph E10.8 kmh E - 1.6 mph 2.6 kmh
Wind Gusts -- 9.1 mph14.6 kmh - -
Humidity 61% 63% 53% 59%
Pressure 29.12 in986.1 mb 29.15 in987.1 mb 29.12 in986.1 mb -
Hour Temp Dew Point Humidity Winds Wind Gusts Pressure Precip Precip Rate Daily Precip Total
07:07 AM 34.7°F1.5°C 22.8°F-5.1°C 61% Calm Calm -- 29.12 in986.1 mb 0.00 in0.0 mm 0.00 in0.0 mm 0.00 in0.0 mm
07:06 AM 34.5°F1.4°C 22.6°F-5.2°C 61% Calm Calm -- 29.12 in986.1 mb 0.00 in0.0 mm 0.00 in0.0 mm 0.00 in0.0 mm
07:05 AM 34.5°F1.4°C 22.6°F-5.2°C 61% Calm Calm -- 29.12 in986.1 mb 0.00 in0.0 mm 0.00 in0.0 mm 0.00 in0.0 mm
07:04 AM 34.5°F1.4°C 22.6°F-5.2°C 61% Calm Calm -- 29.12 in986.1 mb 0.00 in0.0 mm 0.00 in0.0 mm 0.00 in0.0 mm
07:03 AM 34.5°F1.4°C 22.6°F-5.2°C 61% Calm Calm -- 29.12 in986.1 mb 0.00 in0.0 mm 0.00 in0.0 mm 0.00 in0.0 mm
07:02 AM 34.5°F1.4°C 22.6°F-5.2°C 61% Calm Calm -- 29.12 in986.1 mb 0.00 in0.0 mm 0.00 in0.0 mm 0.00 in0.0 mm
07:01 AM 34.5°F1.4°C 22.6°F-5.2°C 61% Calm Calm -- 29.12 in986.1 mb 0.00 in0.0 mm 0.00 in0.0 mm 0.00 in0.0 mm
07:00 AM 34.3°F1.3°C 22.4°F-5.3°C 61% Calm Calm -- 29.12 in986.1 mb 0.00 in0.0 mm 0.00 in0.0 mm 0.00 in0.0 mm
06:59 AM 34.3°F1.3°C 22.4°F-5.3°C 61% Calm Calm -- 29.12 in986.1 mb 0.00 in0.0 mm 0.00 in0.0 mm 0.00 in0.0 mm
06:58 AM 34.3°F1.3°C 22.4°F-5.3°C 61% Calm Calm -- 29.12 in986.1 mb 0.00 in0.0 mm 0.00 in0.0 mm 0.00 in0.0 mm
06:57 AM 34.3°F1.3°C 22.4°F-5.3°C 61% Calm Calm 3.0 mph4.8 kmh 29.12 in986.1 mb 0.00 in0.0 mm 0.00 in0.0 mm 0.00 in0.0 mm
06:56 AM 34.3°F1.3°C 22.4°F-5.3°C 61% Calm Calm 3.0 mph4.8 kmh 29.12 in986.1 mb 0.00 in0.0 mm 0.00 in0.0 mm 0.00 in0.0 mm
06:55 AM 34.3°F1.3°C 22.4°F-5.3°C 61% Calm Calm 3.9 mph6.3 kmh 29.12 in986.1 mb 0.00 in0.0 mm 0.00 in0.0 mm 0.00 in0.0 mm
06:54 AM 34.3°F1.3°C 22.4°F-5.3°C 61% Calm Calm 3.9 mph6.3 kmh 29.12 in986.1 mb 0.00 in0.0 mm 0.00 in0.0 mm 0.00 in0.0 mm
06:53 AM 34.3°F1.3°C 22.4°F-5.3°C 61% Calm Calm 3.9 mph6.3 kmh 29.12 in986.1 mb 0.00 in0.0 mm 0.00 in0.0 mm 0.00 in0.0 mm
06:52 AM 34.2°F1.2°C 22.3°F-5.4°C 61% Calm Calm 3.9 mph6.3 kmh 29.12 in986.1 mb 0.00 in0.0 mm 0.00 in0.0 mm 0.00 in0.0 mm
06:51 AM 34.2°F1.2°C 22.3°F-5.4°C 61% Calm Calm 3.9 mph6.3 kmh 29.12 in986.1 mb 0.00 in0.0 mm 0.00 in0.0 mm 0.00 in0.0 mm
06:50 AM 34.2°F1.2°C 21.8°F-5.7°C 60% Calm Calm 3.9 mph6.3 kmh 29.12 in986.1 mb 0.00 in0.0 mm 0.00 in0.0 mm 0.00 in0.0 mm
06:49 AM 34.2°F1.2°C 21.8°F-5.7°C 60% 3.0 mph ENE4.8 kmh ENE 3.9 mph6.3 kmh 29.12 in986.1 mb 0.00 in0.0 mm 0.00 in0.0 mm 0.00 in0.0 mm
06:48 AM 34.2°F1.2°C 21.8°F-5.7°C 60% 3.0 mph ENE4.8 kmh ENE 3.9 mph6.3 kmh 29.12 in986.1 mb 0.00 in0.0 mm 0.00 in0.0 mm 0.00 in0.0 mm
06:47 AM 34.2°F1.2°C 21.8°F-5.7°C 60% 3.0 mph ENE4.8 kmh ENE 3.9 mph6.3 kmh 29.12 in986.1 mb 0.00 in0.0 mm 0.00 in0.0 mm 0.00 in0.0 mm
06:46 AM 34.2°F1.2°C 21.8°F-5.7°C 60% Calm Calm 3.9 mph6.3 kmh 29.12 in986.1 mb 0.00 in0.0 mm 0.00 in0.0 mm 0.00 in0.0 mm
06:45 AM 34.3°F1.3°C 21.9°F-5.6°C 60% Calm Calm 3.9 mph6.3 kmh 29.12 in986.1 mb 0.00 in0.0 mm 0.00 in0.0 mm 0.00 in0.0 mm
06:44 AM 34.3°F1.3°C 21.9°F-5.6°C 60% Calm Calm 3.9 mph6.3 kmh 29.12 in986.1 mb 0.00 in0.0 mm 0.00 in0.0 mm 0.00 in0.0 mm
06:43 AM 34.3°F1.3°C 21.9°F-5.6°C 60% Calm Calm 3.9 mph6.3 kmh 29.12 in986.1 mb 0.00 in0.0 mm 0.00 in0.0 mm 0.00 in0.0 mm
06:41 AM 34.3°F1.3°C 21.9°F-5.6°C 60% Calm Calm 3.9 mph6.3 kmh 29.12 in986.1 mb 0.00 in0.0 mm 0.00 in0.0 mm 0.00 in0.0 mm
06:40 AM 34.5°F1.4°C 22.1°F-5.5°C 60% Calm Calm 3.9 mph6.3 kmh 29.12 in986.1 mb 0.00 in0.0 mm 0.00 in0.0 mm 0.00 in0.0 mm
06:39 AM 34.5°F1.4°C 22.1°F-5.5°C 60% Calm Calm 3.9 mph6.3 kmh 29.12 in986.1 mb 0.00 in0.0 mm 0.00 in0.0 mm 0.00 in0.0 mm
06:38 AM 34.5°F1.4°C 22.1°F-5.5°C 60% Calm Calm 3.2 mph5.1 kmh 29.12 in986.1 mb 0.00 in0.0 mm 0.00 in0.0 mm 0.00 in0.0 mm
06:37 AM 34.5°F1.4°C 22.5°F-5.3°C 61% Calm Calm -- 29.12 in986.1 mb 0.00 in0.0 mm 0.00 in0.0 mm 0.00 in0.0 mm
06:36 AM 34.5°F1.4°C 22.5°F-5.3°C 61% Calm Calm -- 29.12 in986.1 mb 0.00 in0.0 mm 0.00 in0.0 mm 0.00 in0.0 mm
06:35 AM 34.5°F1.4°C 22.5°F-5.3°C 61% Calm Calm -- 29.12 in986.1 mb 0.00 in0.0 mm 0.00 in0.0 mm 0.00 in0.0 mm
06:34 AM 34.7°F1.5°C 22.7°F-5.2°C 61% Calm Calm -- 29.12 in986.1 mb 0.00 in0.0 mm 0.00 in0.0 mm 0.00 in0.0 mm
06:33 AM 34.7°F1.5°C 22.7°F-5.2°C 61% Calm Calm -- 29.12 in986.1 mb 0.00 in0.0 mm 0.00 in0.0 mm 0.00 in0.0 mm
06:32 AM 34.7°F1.5°C 22.7°F-5.2°C 61% Calm Calm -- 29.12 in986.1 mb 0.00 in0.0 mm 0.00 in0.0 mm 0.00 in0.0 mm
06:31 AM 34.7°F1.5°C 22.7°F-5.2°C 61% Calm Calm -- 29.12 in986.1 mb 0.00 in0.0 mm 0.00 in0.0 mm 0.00 in0.0 mm
06:30 AM 34.7°F1.5°C 22.7°F-5.2°C 61% Calm Calm -- 29.12 in986.1 mb 0.00 in0.0 mm 0.00 in0.0 mm 0.00 in0.0 mm
06:29 AM 34.9°F1.6°C 22.9°F-5.1°C 61% Calm Calm -- 29.12 in986.1 mb 0.00 in0.0 mm 0.00 in0.0 mm 0.00 in0.0 mm
06:28 AM 34.9°F1.6°C 22.9°F-5.1°C 61% Calm Calm -- 29.12 in986.1 mb 0.00 in0.0 mm 0.00 in0.0 mm 0.00 in0.0 mm
06:27 AM 34.9°F1.6°C 22.9°F-5.1°C 61% Calm Calm -- 29.12 in986.1 mb 0.00 in0.0 mm 0.00 in0.0 mm 0.00 in0.0 mm
06:26 AM 34.9°F1.6°C 22.9°F-5.1°C 61% Calm Calm -- 29.12 in986.1 mb 0.00 in0.0 mm 0.00 in0.0 mm 0.00 in0.0 mm
06:25 AM 34.9°F1.6°C 22.9°F-5.1°C 61% Calm Calm -- 29.12 in986.1 mb 0.00 in0.0 mm 0.00 in0.0 mm 0.00 in0.0 mm
06:24 AM 34.9°F1.6°C 22.9°F-5.1°C 61% Calm Calm -- 29.12 in986.1 mb 0.00 in0.0 mm 0.00 in0.0 mm 0.00 in0.0 mm
06:23 AM 34.9°F1.6°C 22.9°F-5.1°C 61% Calm Calm -- 29.12 in986.1 mb 0.00 in0.0 mm 0.00 in0.0 mm 0.00 in0.0 mm
06:22 AM 34.9°F1.6°C 22.9°F-5.1°C 61% Calm Calm -- 29.12 in986.1 mb 0.00 in0.0 mm 0.00 in0.0 mm 0.00 in0.0 mm
06:21 AM 34.9°F1.6°C 22.9°F-5.1°C 61% Calm Calm -- 29.12 in986.1 mb 0.00 in0.0 mm 0.00 in0.0 mm 0.00 in0.0 mm
06:20 AM 34.9°F1.6°C 22.9°F-5.1°C 61% Calm Calm 3.0 mph4.8 kmh 29.12 in986.1 mb 0.00 in0.0 mm 0.00 in0.0 mm 0.00 in0.0 mm
06:19 AM 35.1°F1.7°C 23.1°F-4.9°C 61% Calm Calm 4.5 mph7.2 kmh 29.12 in986.1 mb 0.00 in0.0 mm 0.00 in0.0 mm 0.00 in0.0 mm
06:18 AM 35.1°F1.7°C 23.1°F-4.9°C 61% Calm Calm 4.5 mph7.2 kmh 29.12 in986.1 mb 0.00 in0.0 mm 0.00 in0.0 mm 0.00 in0.0 mm
06:17 AM 35.1°F1.7°C 23.1°F-4.9°C 61% Calm Calm 4.5 mph7.2 kmh 29.12 in986.1 mb 0.00 in0.0 mm 0.00 in0.0 mm 0.00 in0.0 mm
06:16 AM 35.1°F1.7°C 23.1°F-4.9°C 61% Calm Calm 4.5 mph7.2 kmh 29.12 in986.1 mb 0.00 in0.0 mm 0.00 in0.0 mm 0.00 in0.0 mm
06:15 AM 35.1°F1.7°C 23.1°F-4.9°C 61% Calm Calm 4.5 mph7.2 kmh 29.12 in986.1 mb 0.00 in0.0 mm 0.00 in0.0 mm 0.00 in0.0 mm
06:14 AM 35.1°F1.7°C 23.1°F-4.9°C 61% Calm Calm 4.5 mph7.2 kmh 29.12 in986.1 mb 0.00 in0.0 mm 0.00 in0.0 mm 0.00 in0.0 mm
06:13 AM 35.1°F1.7°C 23.1°F-4.9°C 61% Calm Calm 4.5 mph7.2 kmh 29.12 in986.1 mb 0.00 in0.0 mm 0.00 in0.0 mm 0.00 in0.0 mm
06:12 AM 35.1°F1.7°C 23.1°F-4.9°C 61% 3.0 mph ENE4.8 kmh ENE 4.5 mph7.2 kmh 29.12 in986.1 mb 0.00 in0.0 mm 0.00 in0.0 mm 0.00 in0.0 mm
06:11 AM 35.1°F1.7°C 23.1°F-4.9°C 61% 3.0 mph ENE4.8 kmh ENE 4.5 mph7.2 kmh 29.12 in986.1 mb 0.00 in0.0 mm 0.00 in0.0 mm 0.00 in0.0 mm
06:10 AM 35.1°F1.7°C 23.1°F-4.9°C 61% 3.0 mph ENE4.8 kmh ENE 4.5 mph7.2 kmh 29.12 in986.1 mb 0.00 in0.0 mm 0.00 in0.0 mm 0.00 in0.0 mm
06:09 AM 35.1°F1.7°C 23.1°F-4.9°C 61% Calm Calm 3.9 mph6.3 kmh 29.12 in986.1 mb 0.00 in0.0 mm 0.00 in0.0 mm 0.00 in0.0 mm
06:08 AM 35.1°F1.7°C 23.1°F-4.9°C 61% Calm Calm 3.9 mph6.3 kmh 29.12 in986.1 mb 0.00 in0.0 mm 0.00 in0.0 mm 0.00 in0.0 mm
06:07 AM 35.1°F1.7°C 23.1°F-4.9°C 61% Calm Calm 3.9 mph6.3 kmh 29.12 in986.1 mb 0.00 in0.0 mm 0.00 in0.0 mm 0.00 in0.0 mm
06:06 AM 35.1°F1.7°C 23.1°F-4.9°C 61% Calm Calm 3.9 mph6.3 kmh 29.12 in986.1 mb 0.00 in0.0 mm 0.00 in0.0 mm 0.00 in0.0 mm
06:05 AM 35.1°F1.7°C 22.7°F-5.2°C 60% Calm Calm 3.9 mph6.3 kmh 29.12 in986.1 mb 0.00 in0.0 mm 0.00 in0.0 mm 0.00 in0.0 mm
06:04 AM 35.1°F1.7°C 22.7°F-5.2°C 60% Calm Calm -- 29.12 in986.1 mb 0.00 in0.0 mm 0.00 in0.0 mm 0.00 in0.0 mm
06:03 AM 35.2°F1.8°C 22.8°F-5.1°C 60% Calm Calm -- 29.12 in986.1 mb 0.00 in0.0 mm 0.00 in0.0 mm 0.00 in0.0 mm
06:02 AM 35.2°F1.8°C 23.2°F-4.9°C 61% Calm Calm -- 29.12 in986.1 mb 0.00 in0.0 mm 0.00 in0.0 mm 0.00 in0.0 mm
06:01 AM 35.2°F1.8°C 23.3°F-4.8°C 61% Calm Calm -- 29.12 in986.1 mb 0.00 in0.0 mm 0.00 in0.0 mm 0.00 in0.0 mm
06:00 AM 35.4°F1.9°C 23.4°F-4.8°C 61% Calm Calm -- 29.12 in986.1 mb 0.00 in0.0 mm 0.00 in0.0 mm 0.00 in0.0 mm
05:59 AM 35.4°F1.9°C 23.4°F-4.8°C 61% Calm Calm -- 29.12 in986.1 mb 0.00 in0.0 mm 0.00 in0.0 mm 0.00 in0.0 mm
05:58 AM 35.4°F1.9°C 23.4°F-4.8°C 61% Calm Calm -- 29.12 in986.1 mb 0.00 in0.0 mm 0.00 in0.0 mm 0.00 in0.0 mm
05:57 AM 35.4°F1.9°C 23.4°F-4.8°C 61% Calm Calm -- 29.12 in986.1 mb 0.00 in0.0 mm 0.00 in0.0 mm 0.00 in0.0 mm
05:56 AM 35.4°F1.9°C 23.5°F-4.7°C 61% Calm Calm 3.2 mph5.1 kmh 29.12 in986.1 mb 0.00 in0.0 mm 0.00 in0.0 mm 0.00 in0.0 mm
05:55 AM 35.4°F1.9°C 23.5°F-4.7°C 61% Calm Calm 3.9 mph6.3 kmh 29.12 in986.1 mb 0.00 in0.0 mm 0.00 in0.0 mm 0.00 in0.0 mm
05:54 AM 35.6°F2.0°C 23.2°F-4.9°C 60% Calm Calm 3.9 mph6.3 kmh 29.12 in986.1 mb 0.00 in0.0 mm 0.00 in0.0 mm 0.00 in0.0 mm
05:53 AM 35.6°F2.0°C 23.2°F-4.9°C 60% Calm Calm 3.9 mph6.3 kmh 29.12 in986.1 mb 0.00 in0.0 mm 0.00 in0.0 mm 0.00 in0.0 mm
05:52 AM 35.6°F2.0°C 23.2°F-4.9°C 60% Calm Calm 3.9 mph6.3 kmh 29.12 in986.1 mb 0.00 in0.0 mm 0.00 in0.0 mm 0.00 in0.0 mm
05:51 AM 35.6°F2.0°C 23.2°F-4.9°C 60% Calm Calm 3.9 mph6.3 kmh 29.12 in986.1 mb 0.00 in0.0 mm 0.00 in0.0 mm 0.00 in0.0 mm
05:50 AM 35.6°F2.0°C 23.2°F-4.9°C 60% Calm Calm 3.9 mph6.3 kmh 29.12 in986.1 mb 0.00 in0.0 mm 0.00 in0.0 mm 0.00 in0.0 mm
05:49 AM 35.6°F2.0°C 23.2°F-4.9°C 60% Calm Calm 3.9 mph6.3 kmh 29.12 in986.1 mb 0.00 in0.0 mm 0.00 in0.0 mm 0.00 in0.0 mm
05:48 AM 35.6°F2.0°C 23.2°F-4.9°C 60% Calm Calm 3.9 mph6.3 kmh 29.12 in986.1 mb 0.00 in0.0 mm 0.00 in0.0 mm 0.00 in0.0 mm
05:47 AM 35.6°F2.0°C 23.2°F-4.9°C 60% Calm Calm 3.9 mph6.3 kmh 29.12 in986.1 mb 0.00 in0.0 mm 0.00 in0.0 mm 0.00 in0.0 mm
05:46 AM 35.6°F2.0°C 23.2°F-4.9°C 60% 3.0 mph ENE4.8 kmh ENE 3.9 mph6.3 kmh 29.12 in986.1 mb 0.00 in0.0 mm 0.00 in0.0 mm 0.00 in0.0 mm
05:45 AM 35.6°F2.0°C 23.2°F-4.9°C 60% 3.0 mph ENE4.8 kmh ENE 3.9 mph6.3 kmh 29.12 in986.1 mb 0.00 in0.0 mm 0.00 in0.0 mm 0.00 in0.0 mm
05:44 AM 35.6°F2.0°C 23.2°F-4.9°C 60% Calm Calm 3.9 mph6.3 kmh 29.12 in986.1 mb 0.00 in0.0 mm 0.00 in0.0 mm 0.00 in0.0 mm
05:43 AM 35.8°F2.1°C 23.4°F-4.8°C 60% Calm Calm 3.9 mph6.3 kmh 29.12 in986.1 mb 0.00 in0.0 mm 0.00 in0.0 mm 0.00 in0.0 mm
05:42 AM 35.8°F2.1°C 23.4°F-4.8°C 60% Calm Calm 3.2 mph5.1 kmh 29.12 in986.1 mb 0.00 in0.0 mm 0.00 in0.0 mm 0.00 in0.0 mm
05:41 AM 35.8°F2.1°C 23.4°F-4.8°C 60% Calm Calm 3.2 mph5.1 kmh 29.12 in986.1 mb 0.00 in0.0 mm 0.00 in0.0 mm 0.00 in0.0 mm
05:40 AM 35.8°F2.1°C 23.4°F-4.8°C 60% Calm Calm 3.2 mph5.1 kmh 29.12 in986.1 mb 0.00 in0.0 mm 0.00 in0.0 mm 0.00 in0.0 mm
05:39 AM 35.8°F2.1°C 23.4°F-4.8°C 60% Calm Calm 4.5 mph7.2 kmh 29.12 in986.1 mb 0.00 in0.0 mm 0.00 in0.0 mm 0.00 in0.0 mm
05:38 AM 35.8°F2.1°C 23.4°F-4.8°C 60% Calm Calm 4.5 mph7.2 kmh 29.12 in986.1 mb 0.00 in0.0 mm 0.00 in0.0 mm 0.00 in0.0 mm
05:37 AM 36.0°F2.2°C 23.6°F-4.7°C 60% Calm Calm 4.5 mph7.2 kmh 29.12 in986.1 mb 0.00 in0.0 mm 0.00 in0.0 mm 0.00 in0.0 mm
05:36 AM 36.0°F2.2°C 23.6°F-4.7°C 60% Calm Calm 4.5 mph7.2 kmh 29.12 in986.1 mb 0.00 in0.0 mm 0.00 in0.0 mm 0.00 in0.0 mm
05:35 AM 36.0°F2.2°C 23.6°F-4.7°C 60% Calm Calm 4.5 mph7.2 kmh 29.12 in986.1 mb 0.00 in0.0 mm 0.00 in0.0 mm 0.00 in0.0 mm
05:34 AM 36.0°F2.2°C 23.6°F-4.7°C 60% Calm Calm 4.5 mph7.2 kmh 29.12 in986.1 mb 0.00 in0.0 mm 0.00 in0.0 mm 0.00 in0.0 mm
05:33 AM 36.0°F2.2°C 23.6°F-4.7°C 60% Calm Calm 4.5 mph7.2 kmh 29.12 in986.1 mb 0.00 in0.0 mm 0.00 in0.0 mm 0.00 in0.0 mm
05:32 AM 36.0°F2.2°C 23.6°F-4.7°C 60% 3.0 mph ENE4.8 kmh ENE 4.5 mph7.2 kmh 29.12 in986.1 mb 0.00 in0.0 mm 0.00 in0.0 mm 0.00 in0.0 mm
05:31 AM 36.0°F2.2°C 23.6°F-4.7°C 60% 3.0 mph ENE4.8 kmh ENE 4.5 mph7.2 kmh 29.12 in986.1 mb 0.00 in0.0 mm 0.00 in0.0 mm 0.00 in0.0 mm
05:30 AM 36.0°F2.2°C 23.6°F-4.7°C 60% 3.0 mph ENE4.8 kmh ENE 4.5 mph7.2 kmh 29.12 in986.1 mb 0.00 in0.0 mm 0.00 in0.0 mm 0.00 in0.0 mm
05:29 AM 36.1°F2.3°C 23.7°F-4.6°C 60% 3.0 mph ENE4.8 kmh ENE 4.5 mph7.2 kmh 29.12 in986.1 mb 0.00 in0.0 mm 0.00 in0.0 mm 0.00 in0.0 mm
05:28 AM 36.1°F2.3°C 23.7°F-4.6°C 60% 3.0 mph ENE4.8 kmh ENE 4.5 mph7.2 kmh 29.12 in986.1 mb 0.00 in0.0 mm 0.00 in0.0 mm 0.00 in0.0 mm
05:27 AM 36.1°F2.3°C 23.7°F-4.6°C 60% 3.0 mph ENE4.8 kmh ENE 4.5 mph7.2 kmh 29.12 in986.1 mb 0.00 in0.0 mm 0.00 in0.0 mm 0.00 in0.0 mm
05:26 AM 36.1°F2.3°C 23.7°F-4.6°C 60% Calm Calm 3.9 mph6.3 kmh 29.12 in986.1 mb 0.00 in0.0 mm 0.00 in0.0 mm 0.00 in0.0 mm
05:25 AM 36.3°F2.4°C 23.9°F-4.5°C 60% Calm Calm 3.9 mph6.3 kmh 29.12 in986.1 mb 0.00 in0.0 mm 0.00 in0.0 mm 0.00 in0.0 mm
05:24 AM 36.3°F2.4°C 23.9°F-4.5°C 60% Calm Calm 3.9 mph6.3 kmh 29.12 in986.1 mb 0.00 in0.0 mm 0.00 in0.0 mm 0.00 in0.0 mm
05:23 AM 36.3°F2.4°C 23.9°F-4.5°C 60% Calm Calm 3.9 mph6.3 kmh 29.12 in986.1 mb 0.00 in0.0 mm 0.00 in0.0 mm 0.00 in0.0 mm
05:22 AM 36.3°F2.4°C 23.9°F-4.5°C 60% Calm Calm 3.9 mph6.3 kmh 29.12 in986.1 mb 0.00 in0.0 mm 0.00 in0.0 mm 0.00 in0.0 mm
05:21 AM 36.3°F2.4°C 23.9°F-4.5°C 60% Calm Calm 3.9 mph6.3 kmh 29.12 in986.1 mb 0.00 in0.0 mm 0.00 in0.0 mm 0.00 in0.0 mm
05:20 AM 36.5°F2.5°C 24.6°F-4.1°C 62% Calm Calm 3.9 mph6.3 kmh 29.12 in986.1 mb 0.00 in0.0 mm 0.00 in0.0 mm 0.00 in0.0 mm
05:19 AM 36.5°F2.5°C 24.6°F-4.1°C 62% Calm Calm 3.9 mph6.3 kmh 29.12 in986.1 mb 0.00 in0.0 mm 0.00 in0.0 mm 0.00 in0.0 mm
05:18 AM 36.5°F2.5°C 24.6°F-4.1°C 62% Calm Calm 3.9 mph6.3 kmh 29.12 in986.1 mb 0.00 in0.0 mm 0.00 in0.0 mm 0.00 in0.0 mm
05:17 AM 36.5°F2.5°C 24.6°F-4.1°C 62% Calm Calm 3.9 mph6.3 kmh 29.12 in986.1 mb 0.00 in0.0 mm 0.00 in0.0 mm 0.00 in0.0 mm
05:16 AM 36.5°F2.5°C 24.6°F-4.1°C 62% Calm Calm 3.9 mph6.3 kmh 29.12 in986.1 mb 0.00 in0.0 mm 0.00 in0.0 mm 0.00 in0.0 mm
05:15 AM 36.5°F2.5°C 24.6°F-4.1°C 62% Calm Calm 4.5 mph7.2 kmh 29.12 in986.1 mb 0.00 in0.0 mm 0.00 in0.0 mm 0.00 in0.0 mm
05:14 AM 36.7°F2.6°C 24.8°F-4.0°C 62% Calm Calm 5.2 mph8.4 kmh 29.12 in986.1 mb 0.00 in0.0 mm 0.00 in0.0 mm 0.00 in0.0 mm
05:13 AM 36.7°F2.6°C 24.8°F-4.0°C 62% Calm Calm 5.2 mph8.4 kmh 29.12 in986.1 mb 0.00 in0.0 mm 0.00 in0.0 mm 0.00 in0.0 mm
05:12 AM 36.7°F2.6°C 24.8°F-4.0°C 62% 3.0 mph ENE4.8 kmh ENE 5.2 mph8.4 kmh 29.12 in986.1 mb 0.00 in0.0 mm 0.00 in0.0 mm 0.00 in0.0 mm
05:11 AM 36.7°F2.6°C 24.8°F-4.0°C 62% 3.0 mph ENE4.8 kmh ENE 5.2 mph8.4 kmh 29.12 in986.1 mb 0.00 in0.0 mm 0.00 in0.0 mm 0.00 in0.0 mm
05:10 AM 36.7°F2.6°C 24.8°F-4.0°C 62% 3.0 mph ENE4.8 kmh ENE 5.2 mph8.4 kmh 29.12 in986.1 mb 0.00 in0.0 mm 0.00 in0.0 mm 0.00 in0.0 mm
05:09 AM 36.7°F2.6°C 24.8°F-4.0°C 62% 3.0 mph ENE4.8 kmh ENE 5.2 mph8.4 kmh 29.12 in986.1 mb 0.00 in0.0 mm 0.00 in0.0 mm 0.00 in0.0 mm
05:08 AM 36.7°F2.6°C 24.8°F-4.0°C 62% 3.3 mph ENE5.3 kmh ENE 5.2 mph8.4 kmh 29.12 in986.1 mb 0.00 in0.0 mm 0.00 in0.0 mm 0.00 in0.0 mm
05:07 AM 36.7°F2.6°C 24.8°F-4.0°C 62% 3.5 mph ENE5.6 kmh ENE 5.2 mph8.4 kmh 29.12 in986.1 mb 0.00 in0.0 mm 0.00 in0.0 mm 0.00 in0.0 mm
05:06 AM 36.7°F2.6°C 24.8°F-4.0°C 62% 3.4 mph ENE5.5 kmh ENE 5.2 mph8.4 kmh 29.12 in986.1 mb 0.00 in0.0 mm 0.00 in0.0 mm 0.00 in0.0 mm
05:05 AM 36.9°F2.7°C 25.0°F-3.9°C 62% 3.5 mph ENE5.6 kmh ENE 5.2 mph8.4 kmh 29.12 in986.1 mb 0.00 in0.0 mm 0.00 in0.0 mm 0.00 in0.0 mm
05:04 AM 36.9°F2.7°C 25.0°F-3.9°C 62% 3.7 mph ENE6.0 kmh ENE 5.2 mph8.4 kmh 29.12 in986.1 mb 0.00 in0.0 mm 0.00 in0.0 mm 0.00 in0.0 mm
05:03 AM 36.9°F2.7°C 25.0°F-3.9°C 62% 3.6 mph ENE5.8 kmh ENE 5.2 mph8.4 kmh 29.12 in986.1 mb 0.00 in0.0 mm 0.00 in0.0 mm 0.00 in0.0 mm
05:02 AM 36.9°F2.7°C 25.0°F-3.9°C 62% 3.2 mph ENE5.1 kmh ENE 5.2 mph8.4 kmh 29.12 in986.1 mb 0.00 in0.0 mm 0.00 in0.0 mm 0.00 in0.0 mm
05:01 AM 37.0°F2.8°C 25.1°F-3.8°C 62% 3.0 mph NE4.8 kmh NE 4.5 mph7.2 kmh 29.12 in986.1 mb 0.00 in0.0 mm 0.00 in0.0 mm 0.00 in0.0 mm
05:00 AM 37.0°F2.8°C 25.1°F-3.8°C 62% 3.0 mph NE4.8 kmh NE 4.5 mph7.2 kmh 29.12 in986.1 mb 0.00 in0.0 mm 0.00 in0.0 mm 0.00 in0.0 mm
04:59 AM 37.0°F2.8°C 25.1°F-3.8°C 62% Calm Calm 4.5 mph7.2 kmh 29.12 in986.1 mb 0.00 in0.0 mm 0.00 in0.0 mm 0.00 in0.0 mm
04:58 AM 37.0°F2.8°C 25.1°F-3.8°C 62% Calm Calm 3.2 mph5.1 kmh 29.12 in986.1 mb 0.00 in0.0 mm 0.00 in0.0 mm 0.00 in0.0 mm
04:57 AM 37.0°F2.8°C 25.1°F-3.8°C 62% Calm Calm -- 29.12 in986.1 mb 0.00 in0.0 mm 0.00 in0.0 mm 0.00 in0.0 mm
04:56 AM 37.2°F2.9°C 25.3°F-3.7°C 62% Calm Calm 3.2 mph5.1 kmh 29.12 in986.1 mb 0.00 in0.0 mm 0.00 in0.0 mm 0.00 in0.0 mm
04:55 AM 37.2°F2.9°C 25.3°F-3.7°C 62% Calm Calm 5.2 mph8.4 kmh 29.12 in986.1 mb 0.00 in0.0 mm 0.00 in0.0 mm 0.00 in0.0 mm
04:54 AM 37.2°F2.9°C 25.3°F-3.7°C 62% Calm Calm 5.2 mph8.4 kmh 29.12 in986.1 mb 0.00 in0.0 mm 0.00 in0.0 mm 0.00 in0.0 mm
04:53 AM 37.4°F3.0°C 25.5°F-3.6°C 62% Calm Calm 5.2 mph8.4 kmh 29.12 in986.1 mb 0.00 in0.0 mm 0.00 in0.0 mm 0.00 in0.0 mm
04:52 AM 37.4°F3.0°C 25.5°F-3.6°C 62% Calm Calm 5.2 mph8.4 kmh 29.12 in986.1 mb 0.00 in0.0 mm 0.00 in0.0 mm 0.00 in0.0 mm
04:51 AM 37.4°F3.0°C 25.5°F-3.6°C 62% Calm Calm 5.2 mph8.4 kmh 29.12 in986.1 mb 0.00 in0.0 mm 0.00 in0.0 mm 0.00 in0.0 mm
04:50 AM 37.4°F3.0°C 25.5°F-3.6°C 62% Calm Calm 5.2 mph8.4 kmh 29.12 in986.1 mb 0.00 in0.0 mm 0.00 in0.0 mm 0.00 in0.0 mm
04:49 AM 37.4°F3.0°C 25.5°F-3.6°C 62% Calm Calm 5.2 mph8.4 kmh 29.12 in986.1 mb 0.00 in0.0 mm 0.00 in0.0 mm 0.00 in0.0 mm
04:48 AM 37.4°F3.0°C 25.5°F-3.6°C 62% Calm Calm 5.2 mph8.4 kmh 29.12 in986.1 mb 0.00 in0.0 mm 0.00 in0.0 mm 0.00 in0.0 mm
04:47 AM 37.4°F3.0°C 25.5°F-3.6°C 62% Calm Calm 5.2 mph8.4 kmh 29.12 in986.1 mb 0.00 in0.0 mm 0.00 in0.0 mm 0.00 in0.0 mm
04:46 AM 37.4°F3.0°C 25.5°F-3.6°C 62% Calm Calm 5.2 mph8.4 kmh 29.12 in986.1 mb 0.00 in0.0 mm 0.00 in0.0 mm 0.00 in0.0 mm
04:45 AM 37.4°F3.0°C 25.5°F-3.6°C 62% Calm Calm 5.2 mph8.4 kmh 29.12 in986.1 mb 0.00 in0.0 mm 0.00 in0.0 mm 0.00 in0.0 mm
04:44 AM 37.6°F3.1°C 26.1°F-3.3°C 63% Calm Calm 5.8 mph9.3 kmh 29.12 in986.1 mb 0.00 in0.0 mm 0.00 in0.0 mm 0.00 in0.0 mm
04:43 AM 37.6°F3.1°C 26.1°F-3.3°C 63% 3.2 mph NE5.1 kmh NE 7.1 mph11.4 kmh 29.12 in986.1 mb 0.00 in0.0 mm 0.00 in0.0 mm 0.00 in0.0 mm
04:42 AM 37.6°F3.1°C 26.1°F-3.3°C 63% 3.4 mph NE5.5 kmh NE 7.1 mph11.4 kmh 29.12 in986.1 mb 0.00 in0.0 mm 0.00 in0.0 mm 0.00 in0.0 mm
04:41 AM 37.6°F3.1°C 26.1°F-3.3°C 63% 3.3 mph NE5.3 kmh NE 8.4 mph13.5 kmh 29.12 in986.1 mb 0.00 in0.0 mm 0.00 in0.0 mm 0.00 in0.0 mm
04:40 AM 37.6°F3.1°C 26.2°F-3.2°C 63% 3.0 mph NE4.8 kmh NE 8.4 mph13.5 kmh 29.12 in986.1 mb 0.00 in0.0 mm 0.00 in0.0 mm 0.00 in0.0 mm
04:39 AM 37.6°F3.1°C 26.2°F-3.2°C 63% 3.0 mph NE4.8 kmh NE 8.4 mph13.5 kmh 29.12 in986.1 mb 0.00 in0.0 mm 0.00 in0.0 mm 0.00 in0.0 mm
04:38 AM 37.6°F3.1°C 26.2°F-3.2°C 63% 3.7 mph NE6.0 kmh NE 8.4 mph13.5 kmh 29.12 in986.1 mb 0.00 in0.0 mm 0.00 in0.0 mm 0.00 in0.0 mm
04:37 AM 37.6°F3.1°C 25.7°F-3.5°C 62% 3.9 mph NE6.3 kmh NE 8.4 mph13.5 kmh 29.12 in986.1 mb 0.00 in0.0 mm 0.00 in0.0 mm 0.00 in0.0 mm
04:36 AM 37.4°F3.0°C 25.5°F-3.6°C 62% 4.5 mph NE7.2 kmh NE 8.4 mph13.5 kmh 29.12 in986.1 mb 0.00 in0.0 mm 0.00 in0.0 mm 0.00 in0.0 mm
04:35 AM 37.4°F3.0°C 25.0°F-3.9°C 61% 4.7 mph NE7.6 kmh NE 8.4 mph13.5 kmh 29.12 in986.1 mb 0.00 in0.0 mm 0.00 in0.0 mm 0.00 in0.0 mm
04:34 AM 37.2°F2.9°C 25.3°F-3.7°C 62% 4.5 mph NNE7.2 kmh NNE 8.4 mph13.5 kmh 29.12 in986.1 mb 0.00 in0.0 mm 0.00 in0.0 mm 0.00 in0.0 mm
04:33 AM 37.2°F2.9°C 25.3°F-3.7°C 62% 4.9 mph N7.9 kmh N 8.4 mph13.5 kmh 29.12 in986.1 mb 0.00 in0.0 mm 0.00 in0.0 mm 0.00 in0.0 mm
04:32 AM 37.2°F2.9°C 25.3°F-3.7°C 62% 5.3 mph NNE8.5 kmh NNE 8.4 mph13.5 kmh 29.12 in986.1 mb 0.00 in0.0 mm 0.00 in0.0 mm 0.00 in0.0 mm
04:31 AM 37.2°F2.9°C 24.9°F-3.9°C 61% 5.5 mph NE8.9 kmh NE 8.4 mph13.5 kmh 29.12 in986.1 mb 0.00 in0.0 mm 0.00 in0.0 mm 0.00 in0.0 mm
04:30 AM 37.2°F2.9°C 24.9°F-3.9°C 61% 5.5 mph NE8.9 kmh NE 7.8 mph12.6 kmh 29.12 in986.1 mb 0.00 in0.0 mm 0.00 in0.0 mm 0.00 in0.0 mm
04:29 AM 37.0°F2.8°C 24.7°F-4.1°C 61% 5.3 mph NE8.5 kmh NE 7.8 mph12.6 kmh 29.12 in986.1 mb 0.00 in0.0 mm 0.00 in0.0 mm 0.00 in0.0 mm
04:28 AM 37.0°F2.8°C 24.7°F-4.1°C 61% 4.4 mph NE7.1 kmh NE 7.8 mph12.6 kmh 29.12 in986.1 mb 0.00 in0.0 mm 0.00 in0.0 mm 0.00 in0.0 mm
04:27 AM 37.0°F2.8°C 24.7°F-4.1°C 61% 3.7 mph NE6.0 kmh NE 6.5 mph10.5 kmh 29.12 in986.1 mb 0.00 in0.0 mm 0.00 in0.0 mm 0.00 in0.0 mm
04:26 AM 37.0°F2.8°C 24.7°F-4.1°C 61% 3.8 mph NE6.1 kmh NE 5.8 mph9.3 kmh 29.12 in986.1 mb 0.00 in0.0 mm 0.00 in0.0 mm 0.00 in0.0 mm
04:25 AM 37.0°F2.8°C 24.2°F-4.3°C 59% 4.2 mph NE6.8 kmh NE 5.8 mph9.3 kmh 29.12 in986.1 mb 0.00 in0.0 mm 0.00 in0.0 mm 0.00 in0.0 mm
04:24 AM 37.0°F2.8°C 24.2°F-4.3°C 59% 4.5 mph NE7.2 kmh NE 5.8 mph9.3 kmh 29.12 in986.1 mb 0.00 in0.0 mm 0.00 in0.0 mm 0.00 in0.0 mm
04:23 AM 36.9°F2.7°C 24.1°F-4.4°C 59% 4.5 mph NE7.2 kmh NE 5.8 mph9.3 kmh 29.12 in986.1 mb 0.00 in0.0 mm 0.00 in0.0 mm 0.00 in0.0 mm
04:22 AM 36.9°F2.7°C 24.1°F-4.4°C 59% 4.4 mph NE7.1 kmh NE 5.8 mph9.3 kmh 29.12 in986.1 mb 0.00 in0.0 mm 0.00 in0.0 mm 0.00 in0.0 mm
04:21 AM 36.9°F2.7°C 24.1°F-4.4°C 59% 4.4 mph NE7.1 kmh NE 5.8 mph9.3 kmh 29.12 in986.1 mb 0.00 in0.0 mm 0.00 in0.0 mm 0.00 in0.0 mm
04:20 AM 36.9°F2.7°C 24.1°F-4.4°C 59% 4.1 mph NE6.6 kmh NE 5.8 mph9.3 kmh 29.12 in986.1 mb 0.00 in0.0 mm 0.00 in0.0 mm 0.00 in0.0 mm
04:19 AM 36.9°F2.7°C 24.1°F-4.4°C 59% 3.5 mph NE5.6 kmh NE 5.8 mph9.3 kmh 29.12 in986.1 mb 0.00 in0.0 mm 0.00 in0.0 mm 0.00 in0.0 mm
04:18 AM 36.9°F2.7°C 24.1°F-4.4°C 59% 3.3 mph NE5.3 kmh NE 5.2 mph8.4 kmh 29.12 in986.1 mb 0.00 in0.0 mm 0.00 in0.0 mm 0.00 in0.0 mm
04:17 AM 36.9°F2.7°C 24.1°F-4.4°C 59% 3.0 mph NE4.8 kmh NE 3.9 mph6.3 kmh 29.12 in986.1 mb 0.00 in0.0 mm 0.00 in0.0 mm 0.00 in0.0 mm
04:16 AM 36.9°F2.7°C 24.1°F-4.4°C 59% Calm Calm 3.9 mph6.3 kmh 29.12 in986.1 mb 0.00 in0.0 mm 0.00 in0.0 mm 0.00 in0.0 mm
04:15 AM 36.9°F2.7°C 24.1°F-4.4°C 59% Calm Calm 3.9 mph6.3 kmh 29.12 in986.1 mb 0.00 in0.0 mm 0.00 in0.0 mm 0.00 in0.0 mm
04:14 AM 37.0°F2.8°C 24.2°F-4.3°C 59% Calm Calm 3.9 mph6.3 kmh 29.12 in986.1 mb 0.00 in0.0 mm 0.00 in0.0 mm 0.00 in0.0 mm
04:13 AM 37.0°F2.8°C 24.2°F-4.3°C 59% Calm Calm 3.9 mph6.3 kmh 29.12 in986.1 mb 0.00 in0.0 mm 0.00 in0.0 mm 0.00 in0.0 mm
04:12 AM 37.0°F2.8°C 24.2°F-4.3°C 59% Calm Calm 3.9 mph6.3 kmh 29.12 in986.1 mb 0.00 in0.0 mm 0.00 in0.0 mm 0.00 in0.0 mm
04:11 AM 37.2°F2.9°C 24.4°F-4.2°C 60% Calm Calm 3.9 mph6.3 kmh 29.12 in986.1 mb 0.00 in0.0 mm 0.00 in0.0 mm 0.00 in0.0 mm
04:10 AM 37.2°F2.9°C 24.4°F-4.2°C 60% Calm Calm 3.9 mph6.3 kmh 29.12 in986.1 mb 0.00 in0.0 mm 0.00 in0.0 mm 0.00 in0.0 mm
04:09 AM 37.2°F2.9°C 24.4°F-4.2°C 60% Calm Calm 4.5 mph7.2 kmh 29.12 in986.1 mb 0.00 in0.0 mm 0.00 in0.0 mm 0.00 in0.0 mm
04:08 AM 37.4°F3.0°C 24.6°F-4.1°C 60% Calm Calm 4.5 mph7.2 kmh 29.12 in986.1 mb 0.00 in0.0 mm 0.00 in0.0 mm 0.00 in0.0 mm
04:07 AM 37.4°F3.0°C 24.6°F-4.1°C 60% Calm Calm 4.5 mph7.2 kmh 29.12 in986.1 mb 0.00 in0.0 mm 0.00 in0.0 mm 0.00 in0.0 mm
04:06 AM 37.4°F3.0°C 24.6°F-4.1°C 60% Calm Calm 4.5 mph7.2 kmh 29.12 in986.1 mb 0.00 in0.0 mm 0.00 in0.0 mm 0.00 in0.0 mm
04:05 AM 37.4°F3.0°C 24.6°F-4.1°C 60% Calm Calm 4.5 mph7.2 kmh 29.12 in986.1 mb 0.00 in0.0 mm 0.00 in0.0 mm 0.00 in0.0 mm
04:04 AM 37.6°F3.1°C 24.8°F-4.0°C 60% Calm Calm 4.5 mph7.2 kmh 29.12 in986.1 mb 0.00 in0.0 mm 0.00 in0.0 mm 0.00 in0.0 mm
04:03 AM 37.6°F3.1°C 24.8°F-4.0°C 60% Calm Calm 4.5 mph7.2 kmh 29.12 in986.1 mb 0.00 in0.0 mm 0.00 in0.0 mm 0.00 in0.0 mm
04:02 AM 37.6°F3.1°C 24.8°F-4.0°C 60% Calm Calm 4.5 mph7.2 kmh 29.12 in986.1 mb 0.00 in0.0 mm 0.00 in0.0 mm 0.00 in0.0 mm
04:01 AM 37.6°F3.1°C 24.8°F-4.0°C 60% Calm Calm 4.5 mph7.2 kmh 29.12 in986.1 mb 0.00 in0.0 mm 0.00 in0.0 mm 0.00 in0.0 mm
04:00 AM 37.6°F3.1°C 24.8°F-4.0°C 60% Calm Calm 4.5 mph7.2 kmh 29.12 in986.1 mb 0.00 in0.0 mm 0.00 in0.0 mm 0.00 in0.0 mm
03:59 AM 37.8°F3.2°C 25.0°F-3.9°C 60% Calm Calm -- 29.12 in986.1 mb 0.00 in0.0 mm 0.00 in0.0 mm 0.00 in0.0 mm
03:57 AM 37.8°F3.2°C 25.0°F-3.9°C 60% Calm Calm -- 29.12 in986.1 mb 0.00 in0.0 mm 0.00 in0.0 mm 0.00 in0.0 mm
03:56 AM 37.8°F3.2°C 25.0°F-3.9°C 60% Calm Calm -- 29.12 in986.1 mb 0.00 in0.0 mm 0.00 in0.0 mm 0.00 in0.0 mm
03:55 AM 37.9°F3.3°C 25.1°F-3.8°C 60% Calm Calm -- 29.12 in986.1 mb 0.00 in0.0 mm 0.00 in0.0 mm 0.00 in0.0 mm
03:54 AM 37.9°F3.3°C 25.1°F-3.8°C 60% Calm Calm -- 29.12 in986.1 mb 0.00 in0.0 mm 0.00 in0.0 mm 0.00 in0.0 mm
03:53 AM 37.9°F3.3°C 25.1°F-3.8°C 60% Calm Calm -- 29.12 in986.1 mb 0.00 in0.0 mm 0.00 in0.0 mm 0.00 in0.0 mm
03:52 AM 38.1°F3.4°C 25.3°F-3.7°C 60% Calm Calm 3.2 mph5.1 kmh 29.12 in986.1 mb 0.00 in0.0 mm 0.00 in0.0 mm 0.00 in0.0 mm
03:51 AM 38.1°F3.4°C 25.3°F-3.7°C 60% Calm Calm 3.2 mph5.1 kmh 29.12 in986.1 mb 0.00 in0.0 mm 0.00 in0.0 mm 0.00 in0.0 mm
03:50 AM 38.1°F3.4°C 25.3°F-3.7°C 60% Calm Calm 3.9 mph6.3 kmh 29.12 in986.1 mb 0.00 in0.0 mm 0.00 in0.0 mm 0.00 in0.0 mm
03:49 AM 38.3°F3.5°C 25.5°F-3.6°C 60% Calm Calm 3.9 mph6.3 kmh 29.12 in986.1 mb 0.00 in0.0 mm 0.00 in0.0 mm 0.00 in0.0 mm
03:48 AM 38.3°F3.5°C 25.5°F-3.6°C 60% Calm Calm 3.9 mph6.3 kmh 29.12 in986.1 mb 0.00 in0.0 mm 0.00 in0.0 mm 0.00 in0.0 mm
03:47 AM 38.3°F3.5°C 25.5°F-3.6°C 60% Calm Calm 3.9 mph6.3 kmh 29.12 in986.1 mb 0.00 in0.0 mm 0.00 in0.0 mm 0.00 in0.0 mm
03:46 AM 38.5°F3.6°C 25.7°F-3.5°C 60% Calm Calm 4.5 mph7.2 kmh 29.12 in986.1 mb 0.00 in0.0 mm 0.00 in0.0 mm 0.00 in0.0 mm
03:45 AM 38.5°F3.6°C 26.2°F-3.2°C 61% Calm Calm 4.5 mph7.2 kmh 29.12 in986.1 mb 0.00 in0.0 mm 0.00 in0.0 mm 0.00 in0.0 mm
03:44 AM 38.5°F3.6°C 26.2°F-3.2°C 61% Calm Calm 4.5 mph7.2 kmh 29.12 in986.1 mb 0.00 in0.0 mm 0.00 in0.0 mm 0.00 in0.0 mm
03:43 AM 38.5°F3.6°C 26.2°F-3.2°C 61% Calm Calm 4.5 mph7.2 kmh 29.12 in986.1 mb 0.00 in0.0 mm 0.00 in0.0 mm 0.00 in0.0 mm
03:42 AM 38.7°F3.7°C 26.4°F-3.1°C 61% Calm Calm 5.2 mph8.4 kmh 29.12 in986.1 mb 0.00 in0.0 mm 0.00 in0.0 mm 0.00 in0.0 mm
03:41 AM 38.7°F3.7°C 26.4°F-3.1°C 61% Calm Calm 5.8 mph9.3 kmh 29.12 in986.1 mb 0.00 in0.0 mm 0.00 in0.0 mm 0.00 in0.0 mm
03:40 AM 38.7°F3.7°C 26.4°F-3.1°C 61% 3.0 mph E4.8 kmh E 5.8 mph9.3 kmh 29.12 in986.1 mb 0.00 in0.0 mm 0.00 in0.0 mm 0.00 in0.0 mm
03:39 AM 38.7°F3.7°C 26.4°F-3.1°C 61% 3.0 mph E4.8 kmh E 5.8 mph9.3 kmh 29.12 in986.1 mb 0.00 in0.0 mm 0.00 in0.0 mm 0.00 in0.0 mm
03:38 AM 38.8°F3.8°C 26.5°F-3.1°C 61% 3.2 mph E5.1 kmh E 6.7 mph10.8 kmh 29.12 in986.1 mb 0.00 in0.0 mm 0.00 in0.0 mm 0.00 in0.0 mm
03:37 AM 38.8°F3.8°C 26.5°F-3.1°C 61% 3.3 mph E5.3 kmh E 8.4 mph13.5 kmh 29.12 in986.1 mb 0.00 in0.0 mm 0.00 in0.0 mm 0.00 in0.0 mm
03:36 AM 38.8°F3.8°C 26.5°F-3.1°C 61% 3.3 mph E5.3 kmh E 8.4 mph13.5 kmh 29.12 in986.1 mb 0.00 in0.0 mm 0.00 in0.0 mm 0.00 in0.0 mm
03:35 AM 38.8°F3.8°C 26.5°F-3.1°C 61% 3.1 mph E5.0 kmh E 8.4 mph13.5 kmh 29.12 in986.1 mb 0.00 in0.0 mm 0.00 in0.0 mm 0.00 in0.0 mm
03:34 AM 38.8°F3.8°C 26.0°F-3.3°C 60% 3.0 mph E4.8 kmh E 8.4 mph13.5 kmh 29.12 in986.1 mb 0.00 in0.0 mm 0.00 in0.0 mm 0.00 in0.0 mm
03:33 AM 38.8°F3.8°C 26.0°F-3.3°C 60% 3.1 mph E5.0 kmh E 8.4 mph13.5 kmh 29.12 in986.1 mb 0.00 in0.0 mm 0.00 in0.0 mm 0.00 in0.0 mm
03:32 AM 38.8°F3.8°C 26.0°F-3.3°C 60% 3.3 mph E5.3 kmh E 8.4 mph13.5 kmh 29.12 in986.1 mb 0.00 in0.0 mm 0.00 in0.0 mm 0.00 in0.0 mm
03:31 AM 38.8°F3.8°C 26.0°F-3.3°C 60% 3.5 mph E5.6 kmh E 8.4 mph13.5 kmh 29.12 in986.1 mb 0.00 in0.0 mm 0.00 in0.0 mm 0.00 in0.0 mm
03:30 AM 38.8°F3.8°C 26.0°F-3.3°C 60% 4.0 mph E6.4 kmh E 8.4 mph13.5 kmh 29.12 in986.1 mb 0.00 in0.0 mm 0.00 in0.0 mm 0.00 in0.0 mm
03:29 AM 38.8°F3.8°C 26.0°F-3.3°C 60% 5.7 mph E9.2 kmh E 8.4 mph13.5 kmh 29.12 in986.1 mb 0.00 in0.0 mm 0.00 in0.0 mm 0.00 in0.0 mm
03:28 AM 38.8°F3.8°C 26.0°F-3.3°C 60% 6.7 mph E10.8 kmh E 8.4 mph13.5 kmh 29.12 in986.1 mb 0.00 in0.0 mm 0.00 in0.0 mm 0.00 in0.0 mm
03:27 AM 38.8°F3.8°C 26.0°F-3.3°C 60% 6.3 mph E10.1 kmh E 8.4 mph13.5 kmh 29.12 in986.1 mb 0.00 in0.0 mm 0.00 in0.0 mm 0.00 in0.0 mm
03:26 AM 38.8°F3.8°C 26.0°F-3.3°C 60% 5.2 mph E8.4 kmh E 8.4 mph13.5 kmh 29.12 in986.1 mb 0.00 in0.0 mm 0.00 in0.0 mm 0.00 in0.0 mm
03:25 AM 38.8°F3.8°C 26.0°F-3.3°C 60% 4.6 mph E7.4 kmh E 7.1 mph11.4 kmh 29.12 in986.1 mb 0.00 in0.0 mm 0.00 in0.0 mm 0.00 in0.0 mm
03:24 AM 38.8°F3.8°C 26.0°F-3.3°C 60% 3.7 mph E6.0 kmh E 6.5 mph10.5 kmh 29.12 in986.1 mb 0.00 in0.0 mm 0.00 in0.0 mm 0.00 in0.0 mm
03:23 AM 39.0°F3.9°C 26.2°F-3.2°C 60% 3.0 mph E4.8 kmh E 6.5 mph10.5 kmh 29.12 in986.1 mb 0.00 in0.0 mm 0.00 in0.0 mm 0.00 in0.0 mm
03:22 AM 39.0°F3.9°C 26.2°F-3.2°C 60% 3.7 mph ENE6.0 kmh ENE 6.5 mph10.5 kmh 29.12 in986.1 mb 0.00 in0.0 mm 0.00 in0.0 mm 0.00 in0.0 mm
03:21 AM 39.0°F3.9°C 26.2°F-3.2°C 60% 3.7 mph ENE6.0 kmh ENE 6.5 mph10.5 kmh 29.12 in986.1 mb 0.00 in0.0 mm 0.00 in0.0 mm 0.00 in0.0 mm
03:20 AM 39.0°F3.9°C 26.2°F-3.2°C 60% 3.4 mph NE5.5 kmh NE 6.5 mph10.5 kmh 29.12 in986.1 mb 0.00 in0.0 mm 0.00 in0.0 mm 0.00 in0.0 mm
03:19 AM 39.0°F3.9°C 26.7°F-2.9°C 61% 3.2 mph NE5.1 kmh NE 6.5 mph10.5 kmh 29.12 in986.1 mb 0.00 in0.0 mm 0.00 in0.0 mm 0.00 in0.0 mm
03:18 AM 39.0°F3.9°C 26.7°F-2.9°C 61% 3.4 mph NE5.5 kmh NE 5.2 mph8.4 kmh 29.12 in986.1 mb 0.00 in0.0 mm 0.00 in0.0 mm 0.00 in0.0 mm
03:17 AM 39.0°F3.9°C 26.7°F-2.9°C 61% 3.7 mph NE6.0 kmh NE 5.2 mph8.4 kmh 29.12 in986.1 mb 0.00 in0.0 mm 0.00 in0.0 mm 0.00 in0.0 mm
03:16 AM 39.0°F3.9°C 26.7°F-2.9°C 61% 3.7 mph NE6.0 kmh NE 5.2 mph8.4 kmh 29.12 in986.1 mb 0.00 in0.0 mm 0.00 in0.0 mm 0.00 in0.0 mm
03:15 AM 39.0°F3.9°C 26.7°F-2.9°C 61% 3.7 mph NE6.0 kmh NE 5.2 mph8.4 kmh 29.12 in986.1 mb 0.00 in0.0 mm 0.00 in0.0 mm 0.00 in0.0 mm
03:14 AM 39.0°F3.9°C 26.7°F-2.9°C 61% Calm Calm 5.8 mph9.3 kmh 29.12 in986.1 mb 0.00 in0.0 mm 0.00 in0.0 mm 0.00 in0.0 mm
03:13 AM 39.0°F3.9°C 26.7°F-2.9°C 61% Calm Calm 5.8 mph9.3 kmh 29.12 in986.1 mb 0.00 in0.0 mm 0.00 in0.0 mm 0.00 in0.0 mm
03:12 AM 39.0°F3.9°C 26.7°F-2.9°C 61% Calm Calm 5.8 mph9.3 kmh 29.12 in986.1 mb 0.00 in0.0 mm 0.00 in0.0 mm 0.00 in0.0 mm
03:11 AM 39.0°F3.9°C 26.7°F-2.9°C 61% Calm Calm 5.8 mph9.3 kmh 29.12 in986.1 mb 0.00 in0.0 mm 0.00 in0.0 mm 0.00 in0.0 mm
03:10 AM 39.0°F3.9°C 26.2°F-3.2°C 60% Calm Calm 5.8 mph9.3 kmh 29.12 in986.1 mb 0.00 in0.0 mm 0.00 in0.0 mm 0.00 in0.0 mm
03:09 AM 39.0°F3.9°C 26.2°F-3.2°C 60% Calm Calm 5.8 mph9.3 kmh 29.12 in986.1 mb 0.00 in0.0 mm 0.00 in0.0 mm 0.00 in0.0 mm
03:08 AM 39.0°F3.9°C 26.7°F-2.9°C 61% 3.0 mph NE4.8 kmh NE 5.8 mph9.3 kmh 29.12 in986.1 mb 0.00 in0.0 mm 0.00 in0.0 mm 0.00 in0.0 mm
03:07 AM 39.0°F3.9°C 26.2°F-3.2°C 60% 3.0 mph NE4.8 kmh NE 5.8 mph9.3 kmh 29.12 in986.1 mb 0.00 in0.0 mm 0.00 in0.0 mm 0.00 in0.0 mm
03:06 AM 39.0°F3.9°C 26.2°F-3.2°C 60% 3.0 mph NE4.8 kmh NE 5.8 mph9.3 kmh 29.12 in986.1 mb 0.00 in0.0 mm 0.00 in0.0 mm 0.00 in0.0 mm
03:05 AM 38.8°F3.8°C 26.0°F-3.3°C 60% Calm Calm 5.8 mph9.3 kmh 29.12 in986.1 mb 0.00 in0.0 mm 0.00 in0.0 mm 0.00 in0.0 mm
03:04 AM 38.8°F3.8°C 26.0°F-3.3°C 60% Calm Calm 5.2 mph8.4 kmh 29.12 in986.1 mb 0.00 in0.0 mm 0.00 in0.0 mm 0.00 in0.0 mm
03:03 AM 38.8°F3.8°C 25.6°F-3.6°C 59% Calm Calm 5.2 mph8.4 kmh 29.12 in986.1 mb 0.00 in0.0 mm 0.00 in0.0 mm 0.00 in0.0 mm
03:02 AM 38.8°F3.8°C 25.6°F-3.6°C 59% Calm Calm 5.2 mph8.4 kmh 29.12 in986.1 mb 0.00 in0.0 mm 0.00 in0.0 mm 0.00 in0.0 mm
03:01 AM 38.8°F3.8°C 25.6°F-3.6°C 59% Calm Calm 3.9 mph6.3 kmh 29.12 in986.1 mb 0.00 in0.0 mm 0.00 in0.0 mm 0.00 in0.0 mm
03:00 AM 38.8°F3.8°C 25.6°F-3.6°C 59% Calm Calm 3.9 mph6.3 kmh 29.12 in986.1 mb 0.00 in0.0 mm 0.00 in0.0 mm 0.00 in0.0 mm
02:59 AM 38.8°F3.8°C 25.6°F-3.6°C 59% Calm Calm 3.9 mph6.3 kmh 29.12 in986.1 mb 0.00 in0.0 mm 0.00 in0.0 mm 0.00 in0.0 mm
02:58 AM 38.8°F3.8°C 25.6°F-3.6°C 59% Calm Calm 3.9 mph6.3 kmh 29.12 in986.1 mb 0.00 in0.0 mm 0.00 in0.0 mm 0.00 in0.0 mm
02:57 AM 38.8°F3.8°C 25.6°F-3.6°C 59% Calm Calm 3.9 mph6.3 kmh 29.12 in986.1 mb 0.00 in0.0 mm 0.00 in0.0 mm 0.00 in0.0 mm
02:56 AM 38.8°F3.8°C 25.6°F-3.6°C 59% Calm Calm 3.9 mph6.3 kmh 29.12 in986.1 mb 0.00 in0.0 mm 0.00 in0.0 mm 0.00 in0.0 mm
02:55 AM 38.8°F3.8°C 25.6°F-3.6°C 59% Calm Calm 4.5 mph7.2 kmh 29.12 in986.1 mb 0.00 in0.0 mm 0.00 in0.0 mm 0.00 in0.0 mm
02:54 AM 38.8°F3.8°C 25.6°F-3.6°C 59% Calm Calm 5.8 mph9.3 kmh 29.12 in986.1 mb 0.00 in0.0 mm 0.00 in0.0 mm 0.00 in0.0 mm
02:53 AM 38.8°F3.8°C 25.6°F-3.6°C 59% Calm Calm 5.8 mph9.3 kmh 29.12 in986.1 mb 0.00 in0.0 mm 0.00 in0.0 mm 0.00 in0.0 mm
02:52 AM 38.8°F3.8°C 25.6°F-3.6°C 59% Calm Calm 5.8 mph9.3 kmh 29.12 in986.1 mb 0.00 in0.0 mm 0.00 in0.0 mm 0.00 in0.0 mm
02:51 AM 39.0°F3.9°C 25.8°F-3.4°C 59% 3.0 mph ENE4.8 kmh ENE 5.8 mph9.3 kmh 29.12 in986.1 mb 0.00 in0.0 mm 0.00 in0.0 mm 0.00 in0.0 mm
02:50 AM 39.0°F3.9°C 25.8°F-3.4°C 59% 3.0 mph ENE4.8 kmh ENE 5.8 mph9.3 kmh 29.12 in986.1 mb 0.00 in0.0 mm 0.00 in0.0 mm 0.00 in0.0 mm
02:49 AM 39.0°F3.9°C 25.8°F-3.4°C 59% 3.0 mph ENE4.8 kmh ENE 5.8 mph9.3 kmh 29.12 in986.1 mb 0.00 in0.0 mm 0.00 in0.0 mm 0.00 in0.0 mm
02:48 AM 39.0°F3.9°C 25.8°F-3.4°C 59% 3.0 mph ENE4.8 kmh ENE 5.8 mph9.3 kmh 29.12 in986.1 mb 0.00 in0.0 mm 0.00 in0.0 mm 0.00 in0.0 mm
02:47 AM 39.0°F3.9°C 25.8°F-3.4°C 59% 3.0 mph ENE4.8 kmh ENE 5.8 mph9.3 kmh 29.12 in986.1 mb 0.00 in0.0 mm 0.00 in0.0 mm 0.00 in0.0 mm
02:46 AM 39.0°F3.9°C 25.8°F-3.4°C 59% 3.4 mph ENE5.5 kmh ENE 5.8 mph9.3 kmh 29.12 in986.1 mb 0.00 in0.0 mm 0.00 in0.0 mm 0.00 in0.0 mm
02:45 AM 39.0°F3.9°C 25.8°F-3.4°C 59% 3.7 mph ENE6.0 kmh ENE 5.8 mph9.3 kmh 29.12 in986.1 mb 0.00 in0.0 mm 0.00 in0.0 mm 0.00 in0.0 mm
02:44 AM 39.0°F3.9°C 25.8°F-3.4°C 59% 3.5 mph ENE5.6 kmh ENE 7.1 mph11.4 kmh 29.12 in986.1 mb 0.00 in0.0 mm 0.00 in0.0 mm 0.00 in0.0 mm
02:43 AM 38.8°F3.8°C 25.6°F-3.6°C 59% 3.5 mph ENE5.6 kmh ENE 7.1 mph11.4 kmh 29.12 in986.1 mb 0.00 in0.0 mm 0.00 in0.0 mm 0.00 in0.0 mm
02:42 AM 38.8°F3.8°C 25.6°F-3.6°C 59% 3.7 mph ENE6.0 kmh ENE 7.1 mph11.4 kmh 29.12 in986.1 mb 0.00 in0.0 mm 0.00 in0.0 mm 0.00 in0.0 mm
02:41 AM 38.8°F3.8°C 25.6°F-3.6°C 59% Calm Calm 7.1 mph11.4 kmh 29.12 in986.1 mb 0.00 in0.0 mm 0.00 in0.0 mm 0.00 in0.0 mm
02:40 AM 38.8°F3.8°C 25.6°F-3.6°C 59% 4.3 mph NNE6.9 kmh NNE 7.1 mph11.4 kmh 29.12 in986.1 mb 0.00 in0.0 mm 0.00 in0.0 mm 0.00 in0.0 mm
02:39 AM 38.8°F3.8°C 25.6°F-3.6°C 59% 4.1 mph NNE6.6 kmh NNE 7.8 mph12.6 kmh 29.12 in986.1 mb 0.00 in0.0 mm 0.00 in0.0 mm 0.00 in0.0 mm
02:38 AM 38.8°F3.8°C 25.6°F-3.6°C 59% 3.6 mph NE5.8 kmh NE 7.8 mph12.6 kmh 29.12 in986.1 mb 0.00 in0.0 mm 0.00 in0.0 mm 0.00 in0.0 mm
02:37 AM 38.8°F3.8°C 25.6°F-3.6°C 59% 3.5 mph NNE5.6 kmh NNE 7.8 mph12.6 kmh 29.12 in986.1 mb 0.00 in0.0 mm 0.00 in0.0 mm 0.00 in0.0 mm
02:36 AM 38.8°F3.8°C 25.6°F-3.6°C 59% 3.8 mph NNE6.1 kmh NNE 7.8 mph12.6 kmh 29.12 in986.1 mb 0.00 in0.0 mm 0.00 in0.0 mm 0.00 in0.0 mm
02:35 AM 38.8°F3.8°C 25.6°F-3.6°C 59% 3.7 mph NNE6.0 kmh NNE 7.8 mph12.6 kmh 29.12 in986.1 mb 0.00 in0.0 mm 0.00 in0.0 mm 0.00 in0.0 mm
02:34 AM 38.8°F3.8°C 25.6°F-3.6°C 59% Calm Calm 7.8 mph12.6 kmh 29.12 in986.1 mb 0.00 in0.0 mm 0.00 in0.0 mm 0.00 in0.0 mm
02:33 AM 38.8°F3.8°C 25.6°F-3.6°C 59% Calm Calm 7.8 mph12.6 kmh 29.12 in986.1 mb 0.00 in0.0 mm 0.00 in0.0 mm 0.00 in0.0 mm
02:32 AM 38.8°F3.8°C 25.6°F-3.6°C 59% 3.7 mph ENE6.0 kmh ENE 7.8 mph12.6 kmh 29.12 in986.1 mb 0.00 in0.0 mm 0.00 in0.0 mm 0.00 in0.0 mm
02:31 AM 38.8°F3.8°C 25.1°F-3.8°C 58% 3.7 mph ENE6.0 kmh ENE 7.8 mph12.6 kmh 29.12 in986.1 mb 0.00 in0.0 mm 0.00 in0.0 mm 0.00 in0.0 mm
02:30 AM 38.8°F3.8°C 25.1°F-3.8°C 58% 3.6 mph ENE5.8 kmh ENE 7.8 mph12.6 kmh 29.12 in986.1 mb 0.00 in0.0 mm 0.00 in0.0 mm 0.00 in0.0 mm
02:29 AM 38.8°F3.8°C 25.1°F-3.8°C 58% 3.0 mph NE4.8 kmh NE 6.5 mph10.5 kmh 29.12 in986.1 mb 0.00 in0.0 mm 0.00 in0.0 mm 0.00 in0.0 mm
02:28 AM 38.8°F3.8°C 25.1°F-3.8°C 58% 3.0 mph NE4.8 kmh NE 5.2 mph8.4 kmh 29.12 in986.1 mb 0.00 in0.0 mm 0.00 in0.0 mm 0.00 in0.0 mm
02:27 AM 38.8°F3.8°C 25.1°F-3.8°C 58% Calm Calm 5.2 mph8.4 kmh 29.12 in986.1 mb 0.00 in0.0 mm 0.00 in0.0 mm 0.00 in0.0 mm
02:26 AM 38.8°F3.8°C 25.1°F-3.8°C 58% Calm Calm 5.2 mph8.4 kmh 29.12 in986.1 mb 0.00 in0.0 mm 0.00 in0.0 mm 0.00 in0.0 mm
02:25 AM 38.8°F3.8°C 25.1°F-3.8°C 58% Calm Calm 5.2 mph8.4 kmh 29.12 in986.1 mb 0.00 in0.0 mm 0.00 in0.0 mm 0.00 in0.0 mm
02:24 AM 38.8°F3.8°C 25.1°F-3.8°C 58% 3.0 mph NE4.8 kmh NE 5.2 mph8.4 kmh 29.12 in986.1 mb 0.00 in0.0 mm 0.00 in0.0 mm 0.00 in0.0 mm
02:23 AM 38.8°F3.8°C 25.1°F-3.8°C 58% 3.0 mph NE4.8 kmh NE 5.2 mph8.4 kmh 29.12 in986.1 mb 0.00 in0.0 mm 0.00 in0.0 mm 0.00 in0.0 mm
02:22 AM 38.8°F3.8°C 25.1°F-3.8°C 58% 3.0 mph NE4.8 kmh NE 5.2 mph8.4 kmh 29.12 in986.1 mb 0.00 in0.0 mm 0.00 in0.0 mm 0.00 in0.0 mm
02:21 AM 38.8°F3.8°C 25.1°F-3.8°C 58% Calm Calm 5.2 mph8.4 kmh 29.12 in986.1 mb 0.00 in0.0 mm 0.00 in0.0 mm 0.00 in0.0 mm
02:20 AM 38.8°F3.8°C 25.1°F-3.8°C 58% Calm Calm 5.2 mph8.4 kmh 29.12 in986.1 mb 0.00 in0.0 mm 0.00 in0.0 mm 0.00 in0.0 mm
02:19 AM 38.8°F3.8°C 25.1°F-3.8°C 58% Calm Calm 5.2 mph8.4 kmh 29.12 in986.1 mb 0.00 in0.0 mm 0.00 in0.0 mm 0.00 in0.0 mm
02:18 AM 38.8°F3.8°C 25.1°F-3.8°C 58% Calm Calm 5.2 mph8.4 kmh 29.12 in986.1 mb 0.00 in0.0 mm 0.00 in0.0 mm 0.00 in0.0 mm
02:17 AM 38.8°F3.8°C 25.1°F-3.8°C 58% Calm Calm 3.9 mph6.3 kmh 29.12 in986.1 mb 0.00 in0.0 mm 0.00 in0.0 mm 0.00 in0.0 mm
02:16 AM 38.8°F3.8°C 25.1°F-3.8°C 58% Calm Calm 3.9 mph6.3 kmh 29.12 in986.1 mb 0.00 in0.0 mm 0.00 in0.0 mm 0.00 in0.0 mm
02:15 AM 38.8°F3.8°C 25.1°F-3.8°C 58% Calm Calm 3.9 mph6.3 kmh 29.12 in986.1 mb 0.00 in0.0 mm 0.00 in0.0 mm 0.00 in0.0 mm
02:14 AM 39.0°F3.9°C 25.3°F-3.7°C 58% Calm Calm 3.9 mph6.3 kmh 29.12 in986.1 mb 0.00 in0.0 mm 0.00 in0.0 mm 0.00 in0.0 mm
02:13 AM 39.0°F3.9°C 25.3°F-3.7°C 58% Calm Calm 3.9 mph6.3 kmh 29.12 in986.1 mb 0.00 in0.0 mm 0.00 in0.0 mm 0.00 in0.0 mm
02:12 AM 39.0°F3.9°C 25.8°F-3.4°C 59% Calm Calm 3.9 mph6.3 kmh 29.12 in986.1 mb 0.00 in0.0 mm 0.00 in0.0 mm 0.00 in0.0 mm
02:11 AM 39.0°F3.9°C 25.8°F-3.4°C 59% Calm Calm 3.9 mph6.3 kmh 29.12 in986.1 mb 0.00 in0.0 mm 0.00 in0.0 mm 0.00 in0.0 mm
02:10 AM 39.0°F3.9°C 25.8°F-3.4°C 59% Calm Calm 5.2 mph8.4 kmh 29.12 in986.1 mb 0.00 in0.0 mm 0.00 in0.0 mm 0.00 in0.0 mm
02:09 AM 39.0°F3.9°C 25.8°F-3.4°C 59% Calm Calm 5.8 mph9.3 kmh 29.12 in986.1 mb 0.00 in0.0 mm 0.00 in0.0 mm 0.00 in0.0 mm
02:08 AM 39.0°F3.9°C 25.8°F-3.4°C 59% Calm Calm 5.8 mph9.3 kmh 29.12 in986.1 mb 0.00 in0.0 mm 0.00 in0.0 mm 0.00 in0.0 mm
02:07 AM 39.0°F3.9°C 25.3°F-3.7°C 58% Calm Calm 7.1 mph11.4 kmh 29.12 in986.1 mb 0.00 in0.0 mm 0.00 in0.0 mm 0.00 in0.0 mm
02:06 AM 39.0°F3.9°C 25.3°F-3.7°C 58% Calm Calm 7.1 mph11.4 kmh 29.12 in986.1 mb 0.00 in0.0 mm 0.00 in0.0 mm 0.00 in0.0 mm
02:05 AM 39.0°F3.9°C 25.3°F-3.7°C 58% Calm Calm 7.1 mph11.4 kmh 29.12 in986.1 mb 0.00 in0.0 mm 0.00 in0.0 mm 0.00 in0.0 mm
02:04 AM 39.0°F3.9°C 25.3°F-3.7°C 58% Calm Calm 7.1 mph11.4 kmh 29.12 in986.1 mb 0.00 in0.0 mm 0.00 in0.0 mm 0.00 in0.0 mm
02:03 AM 39.0°F3.9°C 25.3°F-3.7°C 58% 3.7 mph NE6.0 kmh NE 7.1 mph11.4 kmh 29.12 in986.1 mb 0.00 in0.0 mm 0.00 in0.0 mm 0.00 in0.0 mm
02:02 AM 39.0°F3.9°C 25.3°F-3.7°C 58% 3.4 mph NE5.5 kmh NE 7.1 mph11.4 kmh 29.12 in986.1 mb 0.00 in0.0 mm 0.00 in0.0 mm 0.00 in0.0 mm
02:01 AM 39.0°F3.9°C 25.3°F-3.7°C 58% 3.5 mph NE5.6 kmh NE 7.1 mph11.4 kmh 29.12 in986.1 mb 0.00 in0.0 mm 0.00 in0.0 mm 0.00 in0.0 mm
02:00 AM 39.0°F3.9°C 25.3°F-3.7°C 58% 3.8 mph NE6.1 kmh NE 7.1 mph11.4 kmh 29.12 in986.1 mb 0.00 in0.0 mm 0.00 in0.0 mm 0.00 in0.0 mm
01:59 AM 39.0°F3.9°C 25.3°F-3.7°C 58% 4.0 mph NE6.4 kmh NE 7.1 mph11.4 kmh 29.12 in986.1 mb 0.00 in0.0 mm 0.00 in0.0 mm 0.00 in0.0 mm
01:58 AM 39.0°F3.9°C 25.3°F-3.7°C 58% 3.7 mph ENE6.0 kmh ENE 7.1 mph11.4 kmh 29.12 in986.1 mb 0.00 in0.0 mm 0.00 in0.0 mm 0.00 in0.0 mm
01:57 AM 39.0°F3.9°C 25.3°F-3.7°C 58% 3.7 mph ENE6.0 kmh ENE 7.1 mph11.4 kmh 29.12 in986.1 mb 0.00 in0.0 mm 0.00 in0.0 mm 0.00 in0.0 mm
01:56 AM 39.0°F3.9°C 25.8°F-3.4°C 59% 3.0 mph ENE4.8 kmh ENE 7.1 mph11.4 kmh 29.12 in986.1 mb 0.00 in0.0 mm 0.00 in0.0 mm 0.00 in0.0 mm
01:55 AM 39.0°F3.9°C 25.8°F-3.4°C 59% 3.0 mph ENE4.8 kmh ENE 7.1 mph11.4 kmh 29.12 in986.1 mb 0.00 in0.0 mm 0.00 in0.0 mm 0.00 in0.0 mm
01:54 AM 39.2°F4.0°C 25.5°F-3.6°C 58% 3.0 mph ENE4.8 kmh ENE 7.1 mph11.4 kmh 29.12 in986.1 mb 0.00 in0.0 mm 0.00 in0.0 mm 0.00 in0.0 mm
01:53 AM 39.2°F4.0°C 25.5°F-3.6°C 58% 3.3 mph ENE5.3 kmh ENE 7.1 mph11.4 kmh 29.12 in986.1 mb 0.00 in0.0 mm 0.00 in0.0 mm 0.00 in0.0 mm
01:52 AM 39.2°F4.0°C 25.5°F-3.6°C 58% 3.6 mph ENE5.8 kmh ENE 7.1 mph11.4 kmh 29.12 in986.1 mb 0.00 in0.0 mm 0.00 in0.0 mm 0.00 in0.0 mm
01:51 AM 39.2°F4.0°C 25.5°F-3.6°C 58% 3.6 mph ENE5.8 kmh ENE 7.1 mph11.4 kmh 29.12 in986.1 mb 0.00 in0.0 mm 0.00 in0.0 mm 0.00 in0.0 mm
01:50 AM 39.2°F4.0°C 25.5°F-3.6°C 58% 3.4 mph ENE5.5 kmh ENE 7.1 mph11.4 kmh 29.12 in986.1 mb 0.00 in0.0 mm 0.00 in0.0 mm 0.00 in0.0 mm
01:49 AM 39.2°F4.0°C 25.5°F-3.6°C 58% 3.7 mph ENE6.0 kmh ENE 5.8 mph9.3 kmh 29.12 in986.1 mb 0.00 in0.0 mm 0.00 in0.0 mm 0.00 in0.0 mm
01:48 AM 39.2°F4.0°C 25.0°F-3.9°C 56% 4.3 mph E6.9 kmh E 5.8 mph9.3 kmh 29.12 in986.1 mb 0.00 in0.0 mm 0.00 in0.0 mm 0.00 in0.0 mm
01:47 AM 39.2°F4.0°C 25.0°F-3.9°C 56% 4.3 mph E6.9 kmh E 5.8 mph9.3 kmh 29.12 in986.1 mb 0.00 in0.0 mm 0.00 in0.0 mm 0.00 in0.0 mm
01:46 AM 39.2°F4.0°C 25.0°F-3.9°C 57% 4.3 mph E6.9 kmh E 5.8 mph9.3 kmh 29.12 in986.1 mb 0.00 in0.0 mm 0.00 in0.0 mm 0.00 in0.0 mm
01:45 AM 39.2°F4.0°C 25.0°F-3.9°C 57% Calm Calm 5.8 mph9.3 kmh 29.12 in986.1 mb 0.00 in0.0 mm 0.00 in0.0 mm 0.00 in0.0 mm
01:44 AM 39.4°F4.1°C 25.7°F-3.5°C 58% Calm Calm 5.2 mph8.4 kmh 29.12 in986.1 mb 0.00 in0.0 mm 0.00 in0.0 mm 0.00 in0.0 mm
01:43 AM 39.4°F4.1°C 25.7°F-3.5°C 58% Calm Calm 5.2 mph8.4 kmh 29.12 in986.1 mb 0.00 in0.0 mm 0.00 in0.0 mm 0.00 in0.0 mm
01:42 AM 39.4°F4.1°C 25.7°F-3.5°C 58% Calm Calm 5.2 mph8.4 kmh 29.12 in986.1 mb 0.00 in0.0 mm 0.00 in0.0 mm 0.00 in0.0 mm
01:41 AM 39.4°F4.1°C 25.7°F-3.5°C 58% Calm Calm 5.2 mph8.4 kmh 29.15 in987.1 mb 0.00 in0.0 mm 0.00 in0.0 mm 0.00 in0.0 mm
01:40 AM 39.4°F4.1°C 25.7°F-3.5°C 58% Calm Calm 5.2 mph8.4 kmh 29.15 in987.1 mb 0.00 in0.0 mm 0.00 in0.0 mm 0.00 in0.0 mm
01:39 AM 39.4°F4.1°C 25.7°F-3.5°C 58% 3.0 mph E4.8 kmh E 5.2 mph8.4 kmh 29.15 in987.1 mb 0.00 in0.0 mm 0.00 in0.0 mm 0.00 in0.0 mm
01:38 AM 39.6°F4.2°C 25.9°F-3.4°C 58% 3.3 mph E5.3 kmh E 5.2 mph8.4 kmh 29.15 in987.1 mb 0.00 in0.0 mm 0.00 in0.0 mm 0.00 in0.0 mm
01:37 AM 39.4°F4.1°C 25.7°F-3.5°C 58% 3.4 mph E5.5 kmh E 5.2 mph8.4 kmh 29.15 in987.1 mb 0.00 in0.0 mm 0.00 in0.0 mm 0.00 in0.0 mm
01:36 AM 39.6°F4.2°C 25.9°F-3.4°C 58% 3.5 mph E5.6 kmh E 5.2 mph8.4 kmh 29.15 in987.1 mb 0.00 in0.0 mm 0.00 in0.0 mm 0.00 in0.0 mm
01:35 AM 39.6°F4.2°C 25.9°F-3.4°C 58% 3.7 mph E6.0 kmh E 5.2 mph8.4 kmh 29.15 in987.1 mb 0.00 in0.0 mm 0.00 in0.0 mm 0.00 in0.0 mm
01:34 AM 39.6°F4.2°C 25.9°F-3.4°C 58% 3.9 mph E6.3 kmh E 5.2 mph8.4 kmh 29.15 in987.1 mb 0.00 in0.0 mm 0.00 in0.0 mm 0.00 in0.0 mm
01:33 AM 39.6°F4.2°C 25.9°F-3.4°C 58% 3.8 mph E6.1 kmh E 5.2 mph8.4 kmh 29.15 in987.1 mb 0.00 in0.0 mm 0.00 in0.0 mm 0.00 in0.0 mm
01:32 AM 39.6°F4.2°C 25.9°F-3.4°C 58% 3.9 mph E6.3 kmh E 5.2 mph8.4 kmh 29.15 in987.1 mb 0.00 in0.0 mm 0.00 in0.0 mm 0.00 in0.0 mm
01:31 AM 39.7°F4.3°C 26.0°F-3.3°C 58% 3.7 mph E6.0 kmh E 7.8 mph12.6 kmh 29.15 in987.1 mb 0.00 in0.0 mm 0.00 in0.0 mm 0.00 in0.0 mm
01:30 AM 39.7°F4.3°C 26.0°F-3.3°C 58% 3.0 mph E4.8 kmh E 7.8 mph12.6 kmh 29.15 in987.1 mb 0.00 in0.0 mm 0.00 in0.0 mm 0.00 in0.0 mm
01:29 AM 39.7°F4.3°C 26.0°F-3.3°C 58% 3.3 mph E5.3 kmh E 7.8 mph12.6 kmh 29.15 in987.1 mb 0.00 in0.0 mm 0.00 in0.0 mm 0.00 in0.0 mm
01:28 AM 39.7°F4.3°C 25.0°F-3.9°C 55% 3.4 mph E5.5 kmh E 7.8 mph12.6 kmh 29.15 in987.1 mb 0.00 in0.0 mm 0.00 in0.0 mm 0.00 in0.0 mm
01:27 AM 39.7°F4.3°C 25.0°F-3.9°C 55% 3.4 mph E5.5 kmh E 7.8 mph12.6 kmh 29.15 in987.1 mb 0.00 in0.0 mm 0.00 in0.0 mm 0.00 in0.0 mm
01:26 AM 39.7°F4.3°C 24.5°F-4.2°C 54% 3.2 mph E5.1 kmh E 7.8 mph12.6 kmh 29.15 in987.1 mb 0.00 in0.0 mm 0.00 in0.0 mm 0.00 in0.0 mm
01:25 AM 39.7°F4.3°C 25.0°F-3.9°C 55% 3.7 mph E6.0 kmh E 7.8 mph12.6 kmh 29.12 in986.1 mb 0.00 in0.0 mm 0.00 in0.0 mm 0.00 in0.0 mm
01:24 AM 39.7°F4.3°C 25.0°F-3.9°C 55% 3.8 mph E6.1 kmh E 7.8 mph12.6 kmh 29.12 in986.1 mb 0.00 in0.0 mm 0.00 in0.0 mm 0.00 in0.0 mm
01:23 AM 39.7°F4.3°C 25.0°F-3.9°C 55% 4.0 mph E6.4 kmh E 7.8 mph12.6 kmh 29.12 in986.1 mb 0.00 in0.0 mm 0.00 in0.0 mm 0.00 in0.0 mm
01:22 AM 39.7°F4.3°C 24.5°F-4.2°C 54% 4.2 mph E6.8 kmh E 7.8 mph12.6 kmh 29.12 in986.1 mb 0.00 in0.0 mm 0.00 in0.0 mm 0.00 in0.0 mm
01:21 AM 39.6°F4.2°C 24.4°F-4.2°C 54% 3.9 mph E6.3 kmh E 7.1 mph11.4 kmh 29.12 in986.1 mb 0.00 in0.0 mm 0.00 in0.0 mm 0.00 in0.0 mm
01:20 AM 39.6°F4.2°C 24.4°F-4.2°C 54% 3.6 mph ENE5.8 kmh ENE 5.2 mph8.4 kmh 29.12 in986.1 mb 0.00 in0.0 mm 0.00 in0.0 mm 0.00 in0.0 mm
01:19 AM 39.6°F4.2°C 24.4°F-4.2°C 54% 3.2 mph ENE5.1 kmh ENE 5.2 mph8.4 kmh 29.12 in986.1 mb 0.00 in0.0 mm 0.00 in0.0 mm 0.00 in0.0 mm
01:18 AM 39.7°F4.3°C 24.5°F-4.2°C 54% 3.5 mph ENE5.6 kmh ENE 5.2 mph8.4 kmh 29.12 in986.1 mb 0.00 in0.0 mm 0.00 in0.0 mm 0.00 in0.0 mm
01:17 AM 39.7°F4.3°C 24.5°F-4.2°C 54% 3.3 mph ENE5.3 kmh ENE 5.2 mph8.4 kmh 29.12 in986.1 mb 0.00 in0.0 mm 0.00 in0.0 mm 0.00 in0.0 mm
01:16 AM 39.7°F4.3°C 24.5°F-4.2°C 54% 3.0 mph ENE4.8 kmh ENE 5.2 mph8.4 kmh 29.12 in986.1 mb 0.00 in0.0 mm 0.00 in0.0 mm 0.00 in0.0 mm
01:15 AM 39.7°F4.3°C 24.5°F-4.2°C 54% 3.0 mph ENE4.8 kmh ENE 4.5 mph7.2 kmh 29.12 in986.1 mb 0.00 in0.0 mm 0.00 in0.0 mm 0.00 in0.0 mm
01:14 AM 39.7°F4.3°C 24.5°F-4.2°C 54% Calm Calm 4.5 mph7.2 kmh 29.12 in986.1 mb 0.00 in0.0 mm 0.00 in0.0 mm 0.00 in0.0 mm
01:13 AM 39.7°F4.3°C 24.5°F-4.2°C 54% Calm Calm 4.5 mph7.2 kmh 29.12 in986.1 mb 0.00 in0.0 mm 0.00 in0.0 mm 0.00 in0.0 mm
01:12 AM 39.7°F4.3°C 24.5°F-4.2°C 54% Calm Calm -- 29.12 in986.1 mb 0.00 in0.0 mm 0.00 in0.0 mm 0.00 in0.0 mm
01:11 AM 39.7°F4.3°C 24.5°F-4.2°C 54% Calm Calm -- 29.15 in987.1 mb 0.00 in0.0 mm 0.00 in0.0 mm 0.00 in0.0 mm
01:10 AM 39.7°F4.3°C 24.5°F-4.2°C 54% Calm Calm -- 29.15 in987.1 mb 0.00 in0.0 mm 0.00 in0.0 mm 0.00 in0.0 mm
01:09 AM 39.7°F4.3°C 24.5°F-4.2°C 54% Calm Calm -- 29.15 in987.1 mb 0.00 in0.0 mm 0.00 in0.0 mm 0.00 in0.0 mm
01:08 AM 39.9°F4.4°C 24.7°F-4.1°C 54% Calm Calm -- 29.15 in987.1 mb 0.00 in0.0 mm 0.00 in0.0 mm 0.00 in0.0 mm
01:07 AM 39.9°F4.4°C 24.7°F-4.1°C 54% Calm Calm -- 29.15 in987.1 mb 0.00 in0.0 mm 0.00 in0.0 mm 0.00 in0.0 mm
01:06 AM 39.9°F4.4°C 24.7°F-4.1°C 54% Calm Calm 3.0 mph4.8 kmh 29.15 in987.1 mb 0.00 in0.0 mm 0.00 in0.0 mm 0.00 in0.0 mm
01:05 AM 39.9°F4.4°C 24.7°F-4.1°C 54% Calm Calm 3.9 mph6.3 kmh 29.15 in987.1 mb 0.00 in0.0 mm 0.00 in0.0 mm 0.00 in0.0 mm
01:04 AM 39.9°F4.4°C 24.7°F-4.1°C 54% Calm Calm 5.8 mph9.3 kmh 29.15 in987.1 mb 0.00 in0.0 mm 0.00 in0.0 mm 0.00 in0.0 mm
01:02 AM 40.1°F4.5°C 24.9°F-3.9°C 54% Calm Calm 7.1 mph11.4 kmh 29.15 in987.1 mb 0.00 in0.0 mm 0.00 in0.0 mm 0.00 in0.0 mm
01:01 AM 40.1°F4.5°C 24.9°F-3.9°C 54% Calm Calm 7.1 mph11.4 kmh 29.15 in987.1 mb 0.00 in0.0 mm 0.00 in0.0 mm 0.00 in0.0 mm
01:00 AM 40.1°F4.5°C 24.9°F-3.9°C 54% Calm Calm 7.1 mph11.4 kmh 29.15 in987.1 mb 0.00 in0.0 mm 0.00 in0.0 mm 0.00 in0.0 mm
12:59 AM 40.3°F4.6°C 25.1°F-3.8°C 54% Calm Calm 7.1 mph11.4 kmh 29.15 in987.1 mb 0.00 in0.0 mm 0.00 in0.0 mm 0.00 in0.0 mm
12:58 AM 40.3°F4.6°C 25.6°F-3.6°C 55% 3.0 mph ENE4.8 kmh ENE 7.1 mph11.4 kmh 29.15 in987.1 mb 0.00 in0.0 mm 0.00 in0.0 mm 0.00 in0.0 mm
12:57 AM 40.3°F4.6°C 25.6°F-3.6°C 55% 3.1 mph ENE5.0 kmh ENE 7.1 mph11.4 kmh 29.15 in987.1 mb 0.00 in0.0 mm 0.00 in0.0 mm 0.00 in0.0 mm
12:56 AM 40.3°F4.6°C 25.6°F-3.6°C 55% 3.6 mph ENE5.8 kmh ENE 7.1 mph11.4 kmh 29.15 in987.1 mb 0.00 in0.0 mm 0.00 in0.0 mm 0.00 in0.0 mm
12:55 AM 40.3°F4.6°C 25.6°F-3.6°C 55% 4.1 mph ENE6.6 kmh ENE 7.1 mph11.4 kmh 29.15 in987.1 mb 0.00 in0.0 mm 0.00 in0.0 mm 0.00 in0.0 mm
12:54 AM 40.3°F4.6°C 25.6°F-3.6°C 55% 3.0 mph NE4.8 kmh NE 7.1 mph11.4 kmh 29.15 in987.1 mb 0.00 in0.0 mm 0.00 in0.0 mm 0.00 in0.0 mm
12:53 AM 40.3°F4.6°C 25.6°F-3.6°C 55% 3.1 mph NE5.0 kmh NE 5.8 mph9.3 kmh 29.15 in987.1 mb 0.00 in0.0 mm 0.00 in0.0 mm 0.00 in0.0 mm
12:52 AM 40.5°F4.7°C 25.8°F-3.4°C 55% 3.2 mph NE5.1 kmh NE 5.8 mph9.3 kmh 29.15 in987.1 mb 0.00 in0.0 mm 0.00 in0.0 mm 0.00 in0.0 mm
12:51 AM 40.5°F4.7°C 25.8°F-3.4°C 55% 3.6 mph NE5.8 kmh NE 5.8 mph9.3 kmh 29.15 in987.1 mb 0.00 in0.0 mm 0.00 in0.0 mm 0.00 in0.0 mm
12:50 AM 40.5°F4.7°C 25.8°F-3.4°C 55% 3.3 mph NE5.3 kmh NE 5.8 mph9.3 kmh 29.15 in987.1 mb 0.00 in0.0 mm 0.00 in0.0 mm 0.00 in0.0 mm
12:49 AM 40.5°F4.7°C 25.3°F-3.7°C 54% 3.0 mph NE4.8 kmh NE 4.5 mph7.2 kmh 29.15 in987.1 mb 0.00 in0.0 mm 0.00 in0.0 mm 0.00 in0.0 mm
12:48 AM 40.5°F4.7°C 25.8°F-3.4°C 55% Calm Calm 4.5 mph7.2 kmh 29.15 in987.1 mb 0.00 in0.0 mm 0.00 in0.0 mm 0.00 in0.0 mm
12:47 AM 40.5°F4.7°C 25.8°F-3.4°C 55% Calm Calm 4.5 mph7.2 kmh 29.15 in987.1 mb 0.00 in0.0 mm 0.00 in0.0 mm 0.00 in0.0 mm
12:46 AM 40.6°F4.8°C 25.9°F-3.4°C 55% Calm Calm 4.5 mph7.2 kmh 29.15 in987.1 mb 0.00 in0.0 mm 0.00 in0.0 mm 0.00 in0.0 mm
12:45 AM 40.6°F4.8°C 25.9°F-3.4°C 55% Calm Calm 4.5 mph7.2 kmh 29.15 in987.1 mb 0.00 in0.0 mm 0.00 in0.0 mm 0.00 in0.0 mm
12:44 AM 40.6°F4.8°C 25.9°F-3.4°C 55% Calm Calm 4.5 mph7.2 kmh 29.15 in987.1 mb 0.00 in0.0 mm 0.00 in0.0 mm 0.00 in0.0 mm
12:43 AM 40.6°F4.8°C 25.9°F-3.4°C 55% Calm Calm 4.5 mph7.2 kmh 29.15 in987.1 mb 0.00 in0.0 mm 0.00 in0.0 mm 0.00 in0.0 mm
12:42 AM 40.6°F4.8°C 25.9°F-3.4°C 55% Calm Calm 4.5 mph7.2 kmh 29.15 in987.1 mb 0.00 in0.0 mm 0.00 in0.0 mm 0.00 in0.0 mm
12:41 AM 40.8°F4.9°C 26.1°F-3.3°C 55% Calm Calm 4.5 mph7.2 kmh 29.15 in987.1 mb 0.00 in0.0 mm 0.00 in0.0 mm 0.00 in0.0 mm
12:40 AM 40.8°F4.9°C 26.1°F-3.3°C 55% Calm Calm 4.5 mph7.2 kmh 29.12 in986.1 mb 0.00 in0.0 mm 0.00 in0.0 mm 0.00 in0.0 mm
12:39 AM 40.8°F4.9°C 26.1°F-3.3°C 55% Calm Calm 5.8 mph9.3 kmh 29.12 in986.1 mb 0.00 in0.0 mm 0.00 in0.0 mm 0.00 in0.0 mm
12:38 AM 40.8°F4.9°C 26.1°F-3.3°C 55% 3.0 mph ENE4.8 kmh ENE 5.8 mph9.3 kmh 29.12 in986.1 mb 0.00 in0.0 mm 0.00 in0.0 mm 0.00 in0.0 mm
12:37 AM 40.8°F4.9°C 26.1°F-3.3°C 55% 3.0 mph ENE4.8 kmh ENE 5.8 mph9.3 kmh 29.12 in986.1 mb 0.00 in0.0 mm 0.00 in0.0 mm 0.00 in0.0 mm
12:36 AM 41.0°F5.0°C 26.3°F-3.2°C 55% 3.0 mph ENE4.8 kmh ENE 7.1 mph11.4 kmh 29.12 in986.1 mb 0.00 in0.0 mm 0.00 in0.0 mm 0.00 in0.0 mm
12:35 AM 41.0°F5.0°C 26.3°F-3.2°C 55% Calm Calm 7.1 mph11.4 kmh 29.12 in986.1 mb 0.00 in0.0 mm 0.00 in0.0 mm 0.00 in0.0 mm
12:34 AM 41.0°F5.0°C 26.3°F-3.2°C 55% Calm Calm 7.1 mph11.4 kmh 29.12 in986.1 mb 0.00 in0.0 mm 0.00 in0.0 mm 0.00 in0.0 mm
12:33 AM 41.0°F5.0°C 26.3°F-3.2°C 55% 3.0 mph ENE4.8 kmh ENE 9.1 mph14.6 kmh 29.12 in986.1 mb 0.00 in0.0 mm 0.00 in0.0 mm 0.00 in0.0 mm
12:32 AM 41.0°F5.0°C 26.3°F-3.2°C 55% 3.1 mph ENE5.0 kmh ENE 9.1 mph14.6 kmh 29.12 in986.1 mb 0.00 in0.0 mm 0.00 in0.0 mm 0.00 in0.0 mm
12:31 AM 41.0°F5.0°C 26.3°F-3.2°C 55% 3.4 mph ENE5.5 kmh ENE 9.1 mph14.6 kmh 29.12 in986.1 mb 0.00 in0.0 mm 0.00 in0.0 mm 0.00 in0.0 mm
12:30 AM 41.0°F5.0°C 26.8°F-2.9°C 57% 4.3 mph ENE6.9 kmh ENE 9.1 mph14.6 kmh 29.12 in986.1 mb 0.00 in0.0 mm 0.00 in0.0 mm 0.00 in0.0 mm
12:29 AM 41.2°F5.1°C 27.0°F-2.8°C 57% 4.3 mph ENE6.9 kmh ENE 9.1 mph14.6 kmh 29.12 in986.1 mb 0.00 in0.0 mm 0.00 in0.0 mm 0.00 in0.0 mm
12:28 AM 41.2°F5.1°C 27.0°F-2.8°C 57% 4.4 mph ENE7.1 kmh ENE 9.1 mph14.6 kmh 29.12 in986.1 mb 0.00 in0.0 mm 0.00 in0.0 mm 0.00 in0.0 mm
12:27 AM 41.2°F5.1°C 27.0°F-2.8°C 57% 4.3 mph ENE6.9 kmh ENE 9.1 mph14.6 kmh 29.12 in986.1 mb 0.00 in0.0 mm 0.00 in0.0 mm 0.00 in0.0 mm
12:26 AM 41.2°F5.1°C 27.0°F-2.8°C 57% 4.0 mph NE6.4 kmh NE 9.1 mph14.6 kmh 29.15 in987.1 mb 0.00 in0.0 mm 0.00 in0.0 mm 0.00 in0.0 mm
12:25 AM 41.2°F5.1°C 26.5°F-3.1°C 55% 4.1 mph NE6.6 kmh NE 9.1 mph14.6 kmh 29.15 in987.1 mb 0.00 in0.0 mm 0.00 in0.0 mm 0.00 in0.0 mm
12:24 AM 41.2°F5.1°C 26.5°F-3.1°C 55% 4.6 mph NE7.4 kmh NE 9.1 mph14.6 kmh 29.15 in987.1 mb 0.00 in0.0 mm 0.00 in0.0 mm 0.00 in0.0 mm
12:23 AM 41.4°F5.2°C 26.6°F-3.0°C 55% 5.2 mph ENE8.4 kmh ENE 7.8 mph12.6 kmh 29.15 in987.1 mb 0.00 in0.0 mm 0.00 in0.0 mm 0.00 in0.0 mm
12:22 AM 41.5°F5.3°C 27.3°F-2.6°C 57% 4.4 mph ENE7.1 kmh ENE 7.1 mph11.4 kmh 29.15 in987.1 mb 0.00 in0.0 mm 0.00 in0.0 mm 0.00 in0.0 mm
12:21 AM 41.5°F5.3°C 27.3°F-2.6°C 57% 3.8 mph ENE6.1 kmh ENE 7.1 mph11.4 kmh 29.15 in987.1 mb 0.00 in0.0 mm 0.00 in0.0 mm 0.00 in0.0 mm
12:20 AM 41.5°F5.3°C 27.3°F-2.6°C 57% 3.2 mph ENE5.1 kmh ENE 7.1 mph11.4 kmh 29.15 in987.1 mb 0.00 in0.0 mm 0.00 in0.0 mm 0.00 in0.0 mm
12:19 AM 41.5°F5.3°C 26.7°F-2.9°C 55% 3.0 mph E4.8 kmh E 7.1 mph11.4 kmh 29.15 in987.1 mb 0.00 in0.0 mm 0.00 in0.0 mm 0.00 in0.0 mm
12:18 AM 41.7°F5.4°C 26.9°F-2.8°C 55% 3.0 mph E4.8 kmh E 7.1 mph11.4 kmh 29.15 in987.1 mb 0.00 in0.0 mm 0.00 in0.0 mm 0.00 in0.0 mm
12:17 AM 41.7°F5.4°C 26.4°F-3.1°C 54% 3.0 mph E4.8 kmh E 7.1 mph11.4 kmh 29.15 in987.1 mb 0.00 in0.0 mm 0.00 in0.0 mm 0.00 in0.0 mm
12:16 AM 41.7°F5.4°C 25.8°F-3.4°C 53% Calm Calm 7.1 mph11.4 kmh 29.15 in987.1 mb 0.00 in0.0 mm 0.00 in0.0 mm 0.00 in0.0 mm
12:15 AM 41.7°F5.4°C 25.8°F-3.4°C 53% Calm Calm 4.5 mph7.2 kmh 29.15 in987.1 mb 0.00 in0.0 mm 0.00 in0.0 mm 0.00 in0.0 mm
12:14 AM 41.7°F5.4°C 25.8°F-3.4°C 53% Calm Calm 4.5 mph7.2 kmh 29.15 in987.1 mb 0.00 in0.0 mm 0.00 in0.0 mm 0.00 in0.0 mm
12:13 AM 41.7°F5.4°C 25.8°F-3.4°C 53% Calm Calm 5.2 mph8.4 kmh 29.15 in987.1 mb 0.00 in0.0 mm 0.00 in0.0 mm 0.00 in0.0 mm
12:12 AM 41.9°F5.5°C 26.6°F-3.0°C 54% 3.0 mph E4.8 kmh E 5.2 mph8.4 kmh 29.15 in987.1 mb 0.00 in0.0 mm 0.00 in0.0 mm 0.00 in0.0 mm
12:11 AM 41.9°F5.5°C 26.6°F-3.0°C 54% 3.0 mph E4.8 kmh E 5.2 mph8.4 kmh 29.12 in986.1 mb 0.00 in0.0 mm 0.00 in0.0 mm 0.00 in0.0 mm
12:10 AM 41.9°F5.5°C 26.6°F-3.0°C 54% 3.0 mph E4.8 kmh E 5.2 mph8.4 kmh 29.12 in986.1 mb 0.00 in0.0 mm 0.00 in0.0 mm 0.00 in0.0 mm
12:09 AM 42.1°F5.6°C 26.8°F-2.9°C 54% 3.0 mph E4.8 kmh E 5.2 mph8.4 kmh 29.12 in986.1 mb 0.00 in0.0 mm 0.00 in0.0 mm 0.00 in0.0 mm
12:08 AM 42.1°F5.6°C 26.8°F-2.9°C 54% Calm Calm 5.2 mph8.4 kmh 29.12 in986.1 mb 0.00 in0.0 mm 0.00 in0.0 mm 0.00 in0.0 mm
12:07 AM 42.1°F5.6°C 26.8°F-2.9°C 54% 3.0 mph ENE4.8 kmh ENE 5.2 mph8.4 kmh 29.12 in986.1 mb 0.00 in0.0 mm 0.00 in0.0 mm 0.00 in0.0 mm
12:06 AM 42.1°F5.6°C 26.8°F-2.9°C 54% 3.1 mph ENE5.0 kmh ENE 5.2 mph8.4 kmh 29.12 in986.1 mb 0.00 in0.0 mm 0.00 in0.0 mm 0.00 in0.0 mm
12:05 AM 42.1°F5.6°C 26.8°F-2.9°C 54% 3.3 mph ENE5.3 kmh ENE 5.2 mph8.4 kmh 29.12 in986.1 mb 0.00 in0.0 mm 0.00 in0.0 mm 0.00 in0.0 mm
12:04 AM 42.3°F5.7°C 27.5°F-2.5°C 55% 3.7 mph ENE6.0 kmh ENE 7.1 mph11.4 kmh 29.12 in986.1 mb 0.00 in0.0 mm 0.00 in0.0 mm 0.00 in0.0 mm
12:03 AM 42.3°F5.7°C 27.5°F-2.5°C 55% 3.5 mph NE5.6 kmh NE 7.1 mph11.4 kmh 29.12 in986.1 mb 0.00 in0.0 mm 0.00 in0.0 mm 0.00 in0.0 mm
12:02 AM 42.3°F5.7°C 27.5°F-2.5°C 55% 3.3 mph NE5.3 kmh NE 7.1 mph11.4 kmh 29.12 in986.1 mb 0.00 in0.0 mm 0.00 in0.0 mm 0.00 in0.0 mm
12:01 AM 42.4°F5.8°C 27.6°F-2.4°C 55% 3.0 mph NE4.8 kmh NE 7.1 mph11.4 kmh 29.12 in986.1 mb 0.00 in0.0 mm 0.00 in0.0 mm 0.00 in0.0 mm
12:00 AM 42.4°F5.8°C 27.0°F-2.8°C 54% 3.0 mph NE4.8 kmh NE 7.1 mph11.4 kmh 29.12 in986.1 mb 0.00 in0.0 mm 0.00 in0.0 mm 0.00 in0.0 mm